Observation data for Lake Alan Henry on 07/17/2019      Previous  Date  Next       Current Mesonet Observations  Soil Data  Daily Summary Page  Observations in Plain Language
KAHS 170500Z 16006KT 31/17 A2998 RMK A01 T03050174  RH  045%=      5-min Rain = 0
KAHS 170501Z 16008KT 31/17 A2998 RMK A01 T03050174  RH  045%=      5-min Rain = 0
KAHS 170502Z 15008KT 31/17 A2998 RMK A01 T03050174  RH  045%=      5-min Rain = 0
KAHS 170503Z 15007KT 31/17 A2998 RMK A01 T03060174  RH  045%=      5-min Rain = 0
KAHS 170504Z 15008KT 31/17 A2998 RMK A01 T03050174  RH  045%=      5-min Rain = 0
KAHS 170505Z 16008KT 31/17 A2998 RMK A01 T03050174  RH  045%=      5-min Rain = 0
KAHS 170506Z 16007KT 31/17 A2998 RMK A01 T03050174  RH  045%=      5-min Rain = 0
KAHS 170507Z 16009KT 31/17 A2998 RMK A01 T03060173  RH  045%=      5-min Rain = 0
KAHS 170508Z 16008KT 31/17 A2998 RMK A01 T03060174  RH  045%=      5-min Rain = 0
KAHS 170509Z 16009KT 31/17 A2998 RMK A01 T03050173  RH  045%=      5-min Rain = 0
KAHS 170510Z 16011KT 31/17 A2998 RMK A01 T03060173  RH  045%=      5-min Rain = 0
KAHS 170511Z 16008KT 31/17 A2998 RMK A01 T03060174  RH  045%=      5-min Rain = 0
KAHS 170512Z 16008KT 31/17 A2998 RMK A01 T03050174  RH  045%=      5-min Rain = 0
KAHS 170513Z 16009KT 31/17 A2998 RMK A01 T03050174  RH  045%=      5-min Rain = 0
KAHS 170514Z 16008KT 31/17 A2998 RMK A01 T03050174  RH  045%=      5-min Rain = 0
KAHS 170515Z 16007KT 31/18 A2998 RMK A01 T03050175  RH  045%=      5-min Rain = 0
KAHS 170516Z 16007KT 31/18 A2998 RMK A01 T03050175  RH  046%=      5-min Rain = 0
KAHS 170517Z 16006KT 31/18 A2998 RMK A01 T03050175  RH  046%=      5-min Rain = 0
KAHS 170518Z 16006KT 30/18 A2998 RMK A01 T03040175  RH  046%=      5-min Rain = 0
KAHS 170519Z 16009KT 30/18 A2998 RMK A01 T03040175  RH  046%=      5-min Rain = 0
KAHS 170520Z 16009G14KT 30/18 A2998 RMK A01 T03040175  RH  046%=      5-min Rain = 0
KAHS 170521Z 17012KT 30/18 A2998 RMK A01 T03040175  RH  046%=      5-min Rain = 0
KAHS 170522Z 16011KT 31/18 A2998 RMK A01 T03050175  RH  046%=      5-min Rain = 0
KAHS 170523Z 16008KT 31/18 A2998 RMK A01 T03050176  RH  046%=      5-min Rain = 0
KAHS 170524Z 16009KT 31/18 A2998 RMK A01 T03050176  RH  046%=      5-min Rain = 0
KAHS 170525Z 16010KT 31/18 A2998 RMK A01 T03050176  RH  046%=      5-min Rain = 0
KAHS 170526Z 17008KT 30/18 A2998 RMK A01 T03040176  RH  046%=      5-min Rain = 0
KAHS 170527Z 17010KT 30/18 A2998 RMK A01 T03040176  RH  046%=      5-min Rain = 0
KAHS 170528Z 16008KT 30/18 A2998 RMK A01 T03030176  RH  047%=      5-min Rain = 0
KAHS 170529Z 17009KT 30/18 A2998 RMK A01 T03030177  RH  047%=      5-min Rain = 0
KAHS 170530Z 16009KT 30/18 A2998 RMK A01 T03030177  RH  047%=      5-min Rain = 0
KAHS 170531Z 17009KT 30/18 A2998 RMK A01 T03030177  RH  047%=      5-min Rain = 0
KAHS 170532Z 16008KT 30/18 A2998 RMK A01 T03030177  RH  047%=      5-min Rain = 0
KAHS 170533Z 17007KT 30/18 A2998 RMK A01 T03020177  RH  047%=      5-min Rain = 0
KAHS 170534Z 17008KT 30/18 A2998 RMK A01 T03010177  RH  047%=      5-min Rain = 0
KAHS 170535Z 16007KT 30/18 A2998 RMK A01 T03010177  RH  047%=      5-min Rain = 0
KAHS 170536Z 16008KT 30/18 A2998 RMK A01 T03010177  RH  048%=      5-min Rain = 0
KAHS 170537Z 17008KT 30/18 A2998 RMK A01 T03010177  RH  048%=      5-min Rain = 0
KAHS 170538Z 16008KT 30/18 A2998 RMK A01 T03010177  RH  047%=      5-min Rain = 0
KAHS 170539Z 17007KT 30/18 A2998 RMK A01 T03010177  RH  048%=      5-min Rain = 0
KAHS 170540Z 17007KT 30/18 A2998 RMK A01 T03000177  RH  048%=      5-min Rain = 0
KAHS 170541Z 17007KT 30/18 A2998 RMK A01 T03000177  RH  048%=      5-min Rain = 0
KAHS 170542Z 16008KT 30/18 A2998 RMK A01 T02990177  RH  048%=      5-min Rain = 0
KAHS 170543Z 16007KT 30/18 A2998 RMK A01 T02990177  RH  048%=      5-min Rain = 0
KAHS 170544Z 17006KT 30/18 A2998 RMK A01 T02990177  RH  048%=      5-min Rain = 0
KAHS 170545Z 17007KT 30/18 A2998 RMK A01 T02980177  RH  048%=      5-min Rain = 0
KAHS 170546Z 17007KT 30/18 A2998 RMK A01 T02980178  RH  048%=      5-min Rain = 0
KAHS 170547Z 17006KT 30/18 A2998 RMK A01 T02980178  RH  048%=      5-min Rain = 0
KAHS 170548Z 17007KT 30/18 A2998 RMK A01 T02980178  RH  048%=      5-min Rain = 0
KAHS 170549Z 17006KT 30/18 A2998 RMK A01 T02980177  RH  048%=      5-min Rain = 0
KAHS 170550Z 17005KT 30/18 A2998 RMK A01 T02980177  RH  048%=      5-min Rain = 0
KAHS 170551Z 17006KT 30/18 A2998 RMK A01 T02980178  RH  049%=      5-min Rain = 0
KAHS 170552Z 17007KT 30/18 A2998 RMK A01 T02980178  RH  049%=      5-min Rain = 0
KAHS 170553Z 16007KT 30/18 A2998 RMK A01 T02980177  RH  048%=      5-min Rain = 0
KAHS 170554Z 18005KT 30/18 A2998 RMK A01 T02970177  RH  048%=      5-min Rain = 0
KAHS 170555Z 18006KT 30/18 A2998 RMK A01 T02970177  RH  049%=      5-min Rain = 0
KAHS 170556Z 17006KT 30/18 A2998 RMK A01 T02970178  RH  049%=      5-min Rain = 0
KAHS 170557Z 16007KT 30/18 A2998 RMK A01 T02960177  RH  049%=      5-min Rain = 0
KAHS 170558Z 17006KT 30/18 A2998 RMK A01 T02960177  RH  049%=      5-min Rain = 0
KAHS 170559Z 18007KT 30/18 A2998 RMK A01 T02960177  RH  049%=      5-min Rain = 0
KAHS 170600Z 17008KT 30/18 A2998 RMK A01 T02960177  RH  049%=      5-min Rain = 0
KAHS 170601Z 18006KT 30/18 A2998 RMK A01 T02960177  RH  049%=      5-min Rain = 0
KAHS 170602Z 17005KT 30/18 A2998 RMK A01 T02950177  RH  049%=      5-min Rain = 0
KAHS 170603Z 17006KT 30/18 A2998 RMK A01 T02950177  RH  049%=      5-min Rain = 0
KAHS 170604Z 18007KT 30/18 A2998 RMK A01 T02950177  RH  049%=      5-min Rain = 0
KAHS 170605Z 17007KT 30/18 A2998 RMK A01 T02960177  RH  049%=      5-min Rain = 0
KAHS 170606Z 17008KT 30/18 A2998 RMK A01 T02960177  RH  049%=      5-min Rain = 0
KAHS 170607Z 18005KT 30/18 A2998 RMK A01 T02960177  RH  049%=      5-min Rain = 0
KAHS 170608Z 17006KT 30/18 A2998 RMK A01 T02950177  RH  049%=      5-min Rain = 0
KAHS 170609Z 18008KT 30/18 A2998 RMK A01 T02950177  RH  049%=      5-min Rain = 0
KAHS 170610Z 18008KT 30/18 A2998 RMK A01 T02950177  RH  049%=      5-min Rain = 0
KAHS 170611Z 17006KT 30/18 A2998 RMK A01 T02950177  RH  049%=      5-min Rain = 0
KAHS 170612Z 18007KT 30/18 A2998 RMK A01 T02950177  RH  049%=      5-min Rain = 0
KAHS 170613Z 18007KT 29/18 A2998 RMK A01 T02940177  RH  049%=      5-min Rain = 0
KAHS 170614Z 18008KT 29/18 A2998 RMK A01 T02940177  RH  049%=      5-min Rain = 0
KAHS 170615Z 18007KT 29/18 A2998 RMK A01 T02940177  RH  049%=      5-min Rain = 0
KAHS 170616Z 17007KT 29/18 A2998 RMK A01 T02940177  RH  049%=      5-min Rain = 0
KAHS 170617Z 18010KT 29/18 A2998 RMK A01 T02940177  RH  049%=      5-min Rain = 0
KAHS 170618Z 18008KT 30/18 A2998 RMK A01 T02950177  RH  049%=      5-min Rain = 0
KAHS 170619Z 18009KT 30/18 A2998 RMK A01 T02950178  RH  049%=      5-min Rain = 0
KAHS 170620Z 18008KT 30/18 A2998 RMK A01 T02950178  RH  049%=      5-min Rain = 0
KAHS 170621Z 18007KT 30/18 A2998 RMK A01 T02950178  RH  049%=      5-min Rain = 0
KAHS 170622Z 18007KT 29/18 A2998 RMK A01 T02940178  RH  050%=      5-min Rain = 0
KAHS 170623Z 18007KT 29/18 A2998 RMK A01 T02940178  RH  050%=      5-min Rain = 0
KAHS 170624Z 17008KT 29/18 A2998 RMK A01 T02940178  RH  050%=      5-min Rain = 0
KAHS 170625Z 17008KT 29/18 A2998 RMK A01 T02940178  RH  050%=      5-min Rain = 0
KAHS 170626Z 17010KT 29/18 A2998 RMK A01 T02930178  RH  050%=      5-min Rain = 0
KAHS 170627Z 18009KT 29/18 A2998 RMK A01 T02940178  RH  050%=      5-min Rain = 0
KAHS 170628Z 18009KT 29/18 A2998 RMK A01 T02940179  RH  050%=      5-min Rain = 0
KAHS 170629Z 18007G12KT 29/18 A2998 RMK A01 T02940179  RH  050%=      5-min Rain = 0
KAHS 170630Z 18008KT 29/18 A2998 RMK A01 T02930178  RH  050%=      5-min Rain = 0
KAHS 170631Z 18008KT 29/18 A2998 RMK A01 T02930178  RH  050%=      5-min Rain = 0
KAHS 170632Z 18009KT 29/18 A2998 RMK A01 T02930179  RH  050%=      5-min Rain = 0
KAHS 170633Z 18006KT 29/18 A2998 RMK A01 T02920179  RH  050%=      5-min Rain = 0
KAHS 170634Z 18010KT 29/18 A2998 RMK A01 T02920179  RH  050%=      5-min Rain = 0
KAHS 170635Z 18008KT 29/18 A2998 RMK A01 T02920179  RH  050%=      5-min Rain = 0
KAHS 170636Z 18008KT 29/18 A2998 RMK A01 T02920179  RH  050%=      5-min Rain = 0
KAHS 170637Z 18008KT 29/18 A2998 RMK A01 T02920179  RH  050%=      5-min Rain = 0
KAHS 170638Z 18009KT 29/18 A2998 RMK A01 T02920179  RH  050%=      5-min Rain = 0
KAHS 170639Z 18007KT 29/18 A2998 RMK A01 T02920179  RH  050%=      5-min Rain = 0
KAHS 170640Z 18009KT 29/18 A2998 RMK A01 T02920179  RH  050%=      5-min Rain = 0
KAHS 170641Z 18007KT 29/18 A2998 RMK A01 T02920178  RH  050%=      5-min Rain = 0
KAHS 170642Z 18006KT 29/18 A2998 RMK A01 T02920179  RH  051%=      5-min Rain = 0
KAHS 170643Z 18006KT 29/18 A2998 RMK A01 T02910179  RH  051%=      5-min Rain = 0
KAHS 170644Z 18005KT 29/18 A2998 RMK A01 T02900179  RH  051%=      5-min Rain = 0
KAHS 170645Z 18007KT 29/18 A2998 RMK A01 T02900180  RH  051%=      5-min Rain = 0
KAHS 170646Z 18010KT 29/18 A2998 RMK A01 T02900180  RH  051%=      5-min Rain = 0
KAHS 170647Z 18008KT 29/18 A2998 RMK A01 T02900179  RH  051%=      5-min Rain = 0
KAHS 170648Z 19007KT 29/18 A2998 RMK A01 T02900179  RH  051%=      5-min Rain = 0
KAHS 170649Z 17009KT 29/18 A2998 RMK A01 T02890179  RH  051%=      5-min Rain = 0
KAHS 170650Z 18009KT 29/18 A2998 RMK A01 T02900179  RH  051%=      5-min Rain = 0
KAHS 170651Z 18007KT 29/18 A2998 RMK A01 T02900179  RH  051%=      5-min Rain = 0
KAHS 170652Z 18009KT 29/18 A2998 RMK A01 T02890180  RH  052%=      5-min Rain = 0
KAHS 170653Z 19007KT 29/18 A2998 RMK A01 T02890179  RH  051%=      5-min Rain = 0
KAHS 170654Z 18008KT 29/18 A2998 RMK A01 T02890180  RH  052%=      5-min Rain = 0
KAHS 170655Z 19008KT 29/18 A2998 RMK A01 T02890179  RH  052%=      5-min Rain = 0
KAHS 170656Z 18008KT 29/18 A2998 RMK A01 T02880180  RH  052%=      5-min Rain = 0
KAHS 170657Z 18009KT 29/18 A2998 RMK A01 T02890180  RH  052%=      5-min Rain = 0
KAHS 170658Z 19007KT 29/18 A2998 RMK A01 T02890180  RH  052%=      5-min Rain = 0
KAHS 170659Z 18007KT 29/18 A2998 RMK A01 T02880180  RH  052%=      5-min Rain = 0
KAHS 170700Z 17007KT 29/18 A2998 RMK A01 T02880180  RH  052%=      5-min Rain = 0
KAHS 170701Z 18008KT 29/18 A2998 RMK A01 T02870180  RH  052%=      5-min Rain = 0
KAHS 170702Z 17009KT 29/18 A2998 RMK A01 T02880180  RH  052%=      5-min Rain = 0
KAHS 170703Z 19007KT 29/18 A2998 RMK A01 T02880180  RH  052%=      5-min Rain = 0
KAHS 170704Z 18008KT 29/18 A2998 RMK A01 T02870180  RH  052%=      5-min Rain = 0
KAHS 170705Z 18007KT 29/18 A2998 RMK A01 T02870180  RH  053%=      5-min Rain = 0
KAHS 170706Z 18006KT 29/18 A2998 RMK A01 T02870181  RH  053%=      5-min Rain = 0
KAHS 170707Z 18007KT 29/18 A2998 RMK A01 T02860181  RH  053%=      5-min Rain = 0
KAHS 170708Z 17009KT 29/18 A2998 RMK A01 T02860181  RH  053%=      5-min Rain = 0
KAHS 170709Z 18008KT 29/18 A2998 RMK A01 T02860180  RH  053%=      5-min Rain = 0
KAHS 170710Z 18008KT 29/18 A2998 RMK A01 T02860181  RH  053%=      5-min Rain = 0
KAHS 170711Z 18009KT 29/18 A2998 RMK A01 T02860181  RH  053%=      5-min Rain = 0
KAHS 170712Z 18008KT 29/18 A2998 RMK A01 T02860181  RH  053%=      5-min Rain = 0
KAHS 170713Z 18010KT 29/18 A2998 RMK A01 T02860181  RH  053%=      5-min Rain = 0
KAHS 170714Z 18009KT 29/18 A2998 RMK A01 T02860180  RH  053%=      5-min Rain = 0
KAHS 170715Z 18008KT 29/18 A2998 RMK A01 T02860180  RH  053%=      5-min Rain = 0
KAHS 170716Z 18010KT 29/18 A2998 RMK A01 T02860180  RH  053%=      5-min Rain = 0
KAHS 170717Z 18008KT 29/18 A2998 RMK A01 T02860180  RH  053%=      5-min Rain = 0
KAHS 170718Z 19008KT 29/18 A2998 RMK A01 T02850180  RH  053%=      5-min Rain = 0
KAHS 170719Z 18010KT 29/18 A2998 RMK A01 T02850180  RH  053%=      5-min Rain = 0
KAHS 170720Z 18010KT 29/18 A2998 RMK A01 T02850180  RH  053%=      5-min Rain = 0
KAHS 170721Z 18008KT 29/18 A2998 RMK A01 T02850181  RH  053%=      5-min Rain = 0
KAHS 170722Z 19008KT 29/18 A2998 RMK A01 T02850181  RH  053%=      5-min Rain = 0
KAHS 170723Z 19010KT 29/18 A2998 RMK A01 T02850181  RH  053%=      5-min Rain = 0
KAHS 170724Z 19008KT 28/18 A2998 RMK A01 T02840181  RH  053%=      5-min Rain = 0
KAHS 170725Z 18007KT 28/18 A2997 RMK A01 T02840181  RH  054%=      5-min Rain = 0
KAHS 170726Z 19008KT 28/18 A2997 RMK A01 T02840181  RH  054%=      5-min Rain = 0
KAHS 170727Z 17008KT 28/18 A2997 RMK A01 T02840181  RH  054%=      5-min Rain = 0
KAHS 170728Z 18008KT 28/18 A2997 RMK A01 T02840181  RH  054%=      5-min Rain = 0
KAHS 170729Z 19006KT 28/18 A2997 RMK A01 T02830181  RH  054%=      5-min Rain = 0
KAHS 170730Z 18009KT 28/18 A2997 RMK A01 T02830181  RH  054%=      5-min Rain = 0
KAHS 170731Z 18008KT 28/18 A2997 RMK A01 T02830181  RH  054%=      5-min Rain = 0
KAHS 170732Z 18008KT 28/18 A2997 RMK A01 T02830181  RH  054%=      5-min Rain = 0
KAHS 170733Z 19008KT 28/18 A2997 RMK A01 T02830181  RH  054%=      5-min Rain = 0
KAHS 170734Z 18008KT 28/18 A2997 RMK A01 T02830181  RH  054%=      5-min Rain = 0
KAHS 170735Z 18007KT 28/18 A2997 RMK A01 T02830181  RH  054%=      5-min Rain = 0
KAHS 170736Z 18010KT 28/18 A2997 RMK A01 T02820180  RH  054%=      5-min Rain = 0
KAHS 170737Z 19009KT 28/18 A2997 RMK A01 T02830181  RH  054%=      5-min Rain = 0
KAHS 170738Z 18008KT 28/18 A2997 RMK A01 T02820181  RH  054%=      5-min Rain = 0
KAHS 170739Z 18009KT 28/18 A2997 RMK A01 T02820181  RH  054%=      5-min Rain = 0
KAHS 170740Z 19008KT 28/18 A2997 RMK A01 T02820181  RH  054%=      5-min Rain = 0
KAHS 170741Z 19009KT 28/18 A2997 RMK A01 T02820182  RH  055%=      5-min Rain = 0
KAHS 170742Z 19007KT 28/18 A2997 RMK A01 T02820182  RH  055%=      5-min Rain = 0
KAHS 170743Z 18007KT 28/18 A2997 RMK A01 T02820182  RH  055%=      5-min Rain = 0
KAHS 170744Z 18010KT 28/18 A2997 RMK A01 T02810182  RH  055%=      5-min Rain = 0
KAHS 170745Z 18009KT 28/18 A2997 RMK A01 T02810181  RH  055%=      5-min Rain = 0
KAHS 170746Z 18009KT 28/18 A2997 RMK A01 T02810181  RH  054%=      5-min Rain = 0
KAHS 170747Z 18010KT 28/18 A2997 RMK A01 T02810181  RH  054%=      5-min Rain = 0
KAHS 170748Z 18008KT 28/18 A2997 RMK A01 T02810181  RH  054%=      5-min Rain = 0
KAHS 170749Z 18008KT 28/18 A2997 RMK A01 T02810181  RH  055%=      5-min Rain = 0
KAHS 170750Z 19006KT 28/18 A2997 RMK A01 T02810182  RH  055%=      5-min Rain = 0
KAHS 170751Z 18007KT 28/18 A2997 RMK A01 T02800183  RH  056%=      5-min Rain = 0
KAHS 170752Z 18009KT 28/18 A2997 RMK A01 T02800183  RH  056%=      5-min Rain = 0
KAHS 170753Z 18009KT 28/18 A2997 RMK A01 T02810182  RH  055%=      5-min Rain = 0
KAHS 170754Z 17008KT 28/18 A2997 RMK A01 T02810182  RH  055%=      5-min Rain = 0
KAHS 170755Z 18008KT 28/18 A2997 RMK A01 T02810181  RH  055%=      5-min Rain = 0
KAHS 170756Z 18007KT 28/18 A2997 RMK A01 T02810181  RH  055%=      5-min Rain = 0
KAHS 170757Z 18007KT 28/18 A2997 RMK A01 T02800182  RH  055%=      5-min Rain = 0
KAHS 170758Z 18006KT 28/18 A2997 RMK A01 T02790182  RH  055%=      5-min Rain = 0
KAHS 170759Z 18007KT 28/18 A2997 RMK A01 T02790182  RH  056%=      5-min Rain = 0
KAHS 170800Z 19007KT 28/18 A2997 RMK A01 T02790183  RH  056%=      5-min Rain = 0
KAHS 170801Z 18009KT 28/18 A2997 RMK A01 T02790184  RH  056%=      5-min Rain = 0
KAHS 170802Z 18009KT 28/18 A2997 RMK A01 T02790184  RH  056%=      5-min Rain = 0
KAHS 170803Z 18006KT 28/18 A2997 RMK A01 T02790184  RH  056%=      5-min Rain = 0
KAHS 170804Z 18007KT 28/18 A2997 RMK A01 T02790183  RH  056%=      5-min Rain = 0
KAHS 170805Z 18008KT 28/18 A2997 RMK A01 T02800183  RH  056%=      5-min Rain = 0
KAHS 170806Z 18008KT 28/18 A2997 RMK A01 T02800182  RH  055%=      5-min Rain = 0
KAHS 170807Z 18006KT 28/18 A2997 RMK A01 T02800182  RH  055%=      5-min Rain = 0
KAHS 170808Z 18009KT 28/18 A2997 RMK A01 T02800182  RH  055%=      5-min Rain = 0
KAHS 170809Z 19007KT 28/18 A2997 RMK A01 T02800183  RH  056%=      5-min Rain = 0
KAHS 170810Z 19006KT 28/18 A2997 RMK A01 T02790183  RH  056%=      5-min Rain = 0
KAHS 170811Z 18006KT 28/18 A2997 RMK A01 T02790183  RH  056%=      5-min Rain = 0
KAHS 170812Z 19007KT 28/18 A2997 RMK A01 T02790183  RH  056%=      5-min Rain = 0
KAHS 170813Z 18007KT 28/18 A2997 RMK A01 T02790183  RH  056%=      5-min Rain = 0
KAHS 170814Z 18006KT 28/18 A2997 RMK A01 T02790183  RH  056%=      5-min Rain = 0
KAHS 170815Z 18009KT 28/18 A2997 RMK A01 T02790183  RH  056%=      5-min Rain = 0
KAHS 170816Z 18006KT 28/18 A2997 RMK A01 T02790183  RH  056%=      5-min Rain = 0
KAHS 170817Z 19004KT 28/18 A2998 RMK A01 T02790184  RH  056%=      5-min Rain = 0
KAHS 170818Z 18007KT 28/18 A2998 RMK A01 T02780184  RH  056%=      5-min Rain = 0
KAHS 170819Z 18006KT 28/18 A2998 RMK A01 T02780183  RH  056%=      5-min Rain = 0
KAHS 170820Z 18006KT 28/18 A2998 RMK A01 T02780184  RH  057%=      5-min Rain = 0
KAHS 170821Z 18007KT 28/18 A2998 RMK A01 T02770183  RH  057%=      5-min Rain = 0
KAHS 170822Z 18007KT 28/18 A2998 RMK A01 T02780183  RH  056%=      5-min Rain = 0
KAHS 170823Z 18006KT 28/18 A2998 RMK A01 T02780183  RH  056%=      5-min Rain = 0
KAHS 170824Z 18008KT 28/18 A2998 RMK A01 T02780183  RH  056%=      5-min Rain = 0
KAHS 170825Z 18007G12KT 28/18 A2998 RMK A01 T02780183  RH  056%=      5-min Rain = 0
KAHS 170826Z 18008KT 28/18 A2997 RMK A01 T02780183  RH  056%=      5-min Rain = 0
KAHS 170827Z 18007KT 28/18 A2997 RMK A01 T02790184  RH  056%=      5-min Rain = 0
KAHS 170828Z 18007KT 28/18 A2998 RMK A01 T02790184  RH  056%=      5-min Rain = 0
KAHS 170829Z 18006KT 28/18 A2998 RMK A01 T02780183  RH  056%=      5-min Rain = 0
KAHS 170830Z 18007KT 28/18 A2998 RMK A01 T02770184  RH  057%=      5-min Rain = 0
KAHS 170831Z 18006KT 28/18 A2998 RMK A01 T02770184  RH  057%=      5-min Rain = 0
KAHS 170832Z 18006KT 28/18 A2998 RMK A01 T02770184  RH  057%=      5-min Rain = 0
KAHS 170833Z 18006KT 28/18 A2998 RMK A01 T02770184  RH  057%=      5-min Rain = 0
KAHS 170834Z 19005KT 28/19 A2998 RMK A01 T02760185  RH  057%=      5-min Rain = 0
KAHS 170835Z 19005KT 28/19 A2998 RMK A01 T02760185  RH  058%=      5-min Rain = 0
KAHS 170836Z 19010KT 28/19 A2998 RMK A01 T02760186  RH  058%=      5-min Rain = 0
KAHS 170837Z 20009KT 28/19 A2998 RMK A01 T02770186  RH  058%=      5-min Rain = 0
KAHS 170838Z 19009KT 28/19 A2998 RMK A01 T02780185  RH  057%=      5-min Rain = 0
KAHS 170839Z 20008KT 28/19 A2998 RMK A01 T02780186  RH  057%=      5-min Rain = 0
KAHS 170840Z 19010KT 28/19 A2998 RMK A01 T02780186  RH  057%=      5-min Rain = 0
KAHS 170841Z 20008KT 28/19 A2998 RMK A01 T02780186  RH  057%=      5-min Rain = 0
KAHS 170842Z 18009KT 28/19 A2998 RMK A01 T02780185  RH  057%=      5-min Rain = 0
KAHS 170843Z 20009KT 28/19 A2998 RMK A01 T02780186  RH  057%=      5-min Rain = 0
KAHS 170844Z 19009KT 28/19 A2998 RMK A01 T02780185  RH  057%=      5-min Rain = 0
KAHS 170845Z 19008KT 28/19 A2998 RMK A01 T02780186  RH  057%=      5-min Rain = 0
KAHS 170846Z 19009KT 28/19 A2998 RMK A01 T02770185  RH  057%=      5-min Rain = 0
KAHS 170847Z 19009G15KT 28/19 A2998 RMK A01 T02770185  RH  057%=      5-min Rain = 0
KAHS 170848Z 20010KT 28/19 A2998 RMK A01 T02770185  RH  057%=      5-min Rain = 0
KAHS 170849Z 19008KT 28/19 A2998 RMK A01 T02770185  RH  057%=      5-min Rain = 0
KAHS 170850Z 19011KT 28/19 A2998 RMK A01 T02770186  RH  057%=      5-min Rain = 0
KAHS 170851Z 19011KT 28/19 A2998 RMK A01 T02770186  RH  057%=      5-min Rain = 0
KAHS 170852Z 19013KT 28/19 A2998 RMK A01 T02780186  RH  058%=      5-min Rain = 0
KAHS 170853Z 19012KT 28/19 A2998 RMK A01 T02780186  RH  057%=      5-min Rain = 0
KAHS 170854Z 20012KT 28/19 A2998 RMK A01 T02780186  RH  057%=      5-min Rain = 0
KAHS 170855Z 19010KT 28/19 A2998 RMK A01 T02780187  RH  057%=      5-min Rain = 0
KAHS 170856Z 18012KT 28/19 A2998 RMK A01 T02780187  RH  058%=      5-min Rain = 0
KAHS 170857Z 19010KT 28/19 A2998 RMK A01 T02780187  RH  058%=      5-min Rain = 0
KAHS 170858Z 19010KT 28/19 A2998 RMK A01 T02770187  RH  058%=      5-min Rain = 0
KAHS 170859Z 19013KT 28/19 A2997 RMK A01 T02770187  RH  058%=      5-min Rain = 0
KAHS 170900Z 19011KT 28/19 A2997 RMK A01 T02770187  RH  058%=      5-min Rain = 0
KAHS 170901Z 20012KT 28/19 A2997 RMK A01 T02770188  RH  058%=      5-min Rain = 0
KAHS 170902Z 19011KT 28/19 A2997 RMK A01 T02770187  RH  058%=      5-min Rain = 0
KAHS 170903Z 18011KT 28/19 A2997 RMK A01 T02770188  RH  058%=      5-min Rain = 0
KAHS 170904Z 19009KT 28/19 A2998 RMK A01 T02770188  RH  058%=      5-min Rain = 0
KAHS 170905Z 19013KT 28/19 A2997 RMK A01 T02760188  RH  058%=      5-min Rain = 0
KAHS 170906Z 19010KT 28/19 A2998 RMK A01 T02760187  RH  058%=      5-min Rain = 0
KAHS 170907Z 20014KT 28/19 A2997 RMK A01 T02760187  RH  058%=      5-min Rain = 0
KAHS 170908Z 19009KT 28/19 A2997 RMK A01 T02760187  RH  058%=      5-min Rain = 0
KAHS 170909Z 19009KT 28/19 A2998 RMK A01 T02760188  RH  059%=      5-min Rain = 0
KAHS 170910Z 19010KT 28/19 A2998 RMK A01 T02750188  RH  059%=      5-min Rain = 0
KAHS 170911Z 19009G15KT 28/19 A2998 RMK A01 T02750188  RH  059%=      5-min Rain = 0
KAHS 170912Z 18009KT 28/19 A2998 RMK A01 T02750188  RH  059%=      5-min Rain = 0
KAHS 170913Z 20012KT 28/19 A2997 RMK A01 T02750188  RH  059%=      5-min Rain = 0
KAHS 170914Z 19012KT 28/19 A2997 RMK A01 T02750188  RH  059%=      5-min Rain = 0
KAHS 170915Z 19010KT 28/19 A2998 RMK A01 T02750188  RH  059%=      5-min Rain = 0
KAHS 170916Z 19011KT 28/19 A2998 RMK A01 T02750188  RH  059%=      5-min Rain = 0
KAHS 170917Z 19008G14KT 28/19 A2998 RMK A01 T02750188  RH  059%=      5-min Rain = 0
KAHS 170918Z 20009KT 27/19 A2997 RMK A01 T02740188  RH  059%=      5-min Rain = 0
KAHS 170919Z 19011KT 27/19 A2997 RMK A01 T02740188  RH  059%=      5-min Rain = 0
KAHS 170920Z 19011KT 27/19 A2997 RMK A01 T02740188  RH  059%=      5-min Rain = 0
KAHS 170921Z 19011KT 27/19 A2997 RMK A01 T02740187  RH  059%=      5-min Rain = 0
KAHS 170922Z 19014KT 27/19 A2997 RMK A01 T02740187  RH  059%=      5-min Rain = 0
KAHS 170923Z 19012G17KT 27/19 A2997 RMK A01 T02740188  RH  059%=      5-min Rain = 0
KAHS 170924Z 20010KT 27/19 A2997 RMK A01 T02740187  RH  059%=      5-min Rain = 0
KAHS 170925Z 20009KT 27/19 A2997 RMK A01 T02730187  RH  059%=      5-min Rain = 0
KAHS 170926Z 20010G15KT 27/19 A2997 RMK A01 T02730187  RH  059%=      5-min Rain = 0
KAHS 170927Z 20010KT 27/19 A2997 RMK A01 T02730187  RH  060%=      5-min Rain = 0
KAHS 170928Z 19009KT 27/19 A2997 RMK A01 T02720187  RH  060%=      5-min Rain = 0
KAHS 170929Z 19011KT 27/19 A2997 RMK A01 T02720188  RH  060%=      5-min Rain = 0
KAHS 170930Z 20013KT 27/19 A2997 RMK A01 T02720187  RH  060%=      5-min Rain = 0
KAHS 170931Z 19012KT 27/19 A2998 RMK A01 T02720187  RH  060%=      5-min Rain = 0
KAHS 170932Z 20013G18KT 27/19 A2997 RMK A01 T02720188  RH  060%=      5-min Rain = 0
KAHS 170933Z 19013KT 27/19 A2997 RMK A01 T02730188  RH  060%=      5-min Rain = 0
KAHS 170934Z 19013G18KT 27/19 A2998 RMK A01 T02720188  RH  060%=      5-min Rain = 0
KAHS 170935Z 20011KT 27/19 A2998 RMK A01 T02720188  RH  060%=      5-min Rain = 0
KAHS 170936Z 19009KT 27/19 A2998 RMK A01 T02720188  RH  060%=      5-min Rain = 0
KAHS 170937Z 19012KT 27/19 A2998 RMK A01 T02710188  RH  060%=      5-min Rain = 0
KAHS 170938Z 19011G16KT 27/19 A2998 RMK A01 T02710189  RH  060%=      5-min Rain = 0
KAHS 170939Z 19011G16KT 27/19 A2998 RMK A01 T02710189  RH  061%=      5-min Rain = 0
KAHS 170940Z 19016KT 27/19 A2997 RMK A01 T02720189  RH  061%=      5-min Rain = 0
KAHS 170941Z 20013KT 27/19 A2998 RMK A01 T02720189  RH  060%=      5-min Rain = 0
KAHS 170942Z 19014KT 27/19 A2998 RMK A01 T02710188  RH  060%=      5-min Rain = 0
KAHS 170943Z 19010KT 27/19 A2998 RMK A01 T02710189  RH  061%=      5-min Rain = 0
KAHS 170944Z 19010KT 27/19 A2998 RMK A01 T02710189  RH  061%=      5-min Rain = 0
KAHS 170945Z 19011KT 27/19 A2998 RMK A01 T02700189  RH  061%=      5-min Rain = 0
KAHS 170946Z 19012G17KT 27/19 A2998 RMK A01 T02700189  RH  061%=      5-min Rain = 0
KAHS 170947Z 19013KT 27/19 A2998 RMK A01 T02700189  RH  061%=      5-min Rain = 0
KAHS 170948Z 18011G16KT 27/19 A2997 RMK A01 T02700189  RH  061%=      5-min Rain = 0
KAHS 170949Z 19011KT 27/19 A2997 RMK A01 T02700189  RH  061%=      5-min Rain = 0
KAHS 170950Z 18012KT 27/19 A2997 RMK A01 T02690189  RH  061%=      5-min Rain = 0
KAHS 170951Z 19012KT 27/19 A2997 RMK A01 T02690190  RH  062%=      5-min Rain = 0
KAHS 170952Z 19011KT 27/19 A2997 RMK A01 T02690190  RH  062%=      5-min Rain = 0
KAHS 170953Z 19010KT 27/19 A2998 RMK A01 T02690190  RH  062%=      5-min Rain = 0
KAHS 170954Z 19012KT 27/19 A2998 RMK A01 T02690190  RH  062%=      5-min Rain = 0
KAHS 170955Z 19012KT 27/19 A2998 RMK A01 T02690190  RH  062%=      5-min Rain = 0
KAHS 170956Z 19012KT 27/19 A2998 RMK A01 T02690191  RH  062%=      5-min Rain = 0
KAHS 170957Z 19011KT 27/19 A2998 RMK A01 T02690191  RH  062%=      5-min Rain = 0
KAHS 170958Z 19011KT 27/19 A2998 RMK A01 T02690191  RH  062%=      5-min Rain = 0
KAHS 170959Z 19012KT 27/19 A2998 RMK A01 T02680191  RH  063%=      5-min Rain = 0
KAHS 171000Z 19013KT 27/19 A2998 RMK A01 T02680191  RH  062%=      5-min Rain = 0
KAHS 171001Z 19012KT 27/19 A2997 RMK A01 T02680191  RH  062%=      5-min Rain = 0
KAHS 171002Z 20009KT 27/19 A2997 RMK A01 T02680191  RH  062%=      5-min Rain = 0
KAHS 171003Z 19010KT 27/19 A2997 RMK A01 T02680190  RH  063%=      5-min Rain = 0
KAHS 171004Z 19012KT 27/19 A2997 RMK A01 T02670191  RH  063%=      5-min Rain = 0
KAHS 171005Z 19014G20KT 27/19 A2997 RMK A01 T02670191  RH  063%=      5-min Rain = 0
KAHS 171006Z 19014KT 27/19 A2997 RMK A01 T02680191  RH  063%=      5-min Rain = 0
KAHS 171007Z 19011G16KT 27/19 A2997 RMK A01 T02680191  RH  063%=      5-min Rain = 0
KAHS 171008Z 19010KT 27/19 A2997 RMK A01 T02680191  RH  063%=      5-min Rain = 0
KAHS 171009Z 19011KT 27/19 A2997 RMK A01 T02670192  RH  063%=      5-min Rain = 0
KAHS 171010Z 19013KT 27/19 A2997 RMK A01 T02670192  RH  063%=      5-min Rain = 0
KAHS 171011Z 19016G21KT 27/19 A2997 RMK A01 T02680192  RH  063%=      5-min Rain = 0
KAHS 171012Z 19014G19KT 27/19 A2998 RMK A01 T02680192  RH  063%=      5-min Rain = 0
KAHS 171013Z 19013G19KT 27/19 A2998 RMK A01 T02680193  RH  063%=      5-min Rain = 0
KAHS 171014Z 20015G20KT 27/19 A2998 RMK A01 T02680193  RH  063%=      5-min Rain = 0
KAHS 171015Z 19012KT 27/19 A2998 RMK A01 T02680192  RH  063%=      5-min Rain = 0
KAHS 171016Z 19012KT 27/19 A2998 RMK A01 T02680193  RH  063%=      5-min Rain = 0
KAHS 171017Z 19012KT 27/19 A2998 RMK A01 T02680193  RH  063%=      5-min Rain = 0
KAHS 171018Z 19012KT 27/19 A2998 RMK A01 T02680193  RH  064%=      5-min Rain = 0
KAHS 171019Z 19012G18KT 27/19 A2998 RMK A01 T02670193  RH  064%=      5-min Rain = 0
KAHS 171020Z 19011KT 27/19 A2998 RMK A01 T02670193  RH  064%=      5-min Rain = 0
KAHS 171021Z 19012KT 27/19 A2998 RMK A01 T02670193  RH  064%=      5-min Rain = 0
KAHS 171022Z 19014KT 27/19 A2998 RMK A01 T02670193  RH  064%=      5-min Rain = 0
KAHS 171023Z 19012G18KT 27/19 A2998 RMK A01 T02670193  RH  064%=      5-min Rain = 0
KAHS 171024Z 19013G18KT 27/19 A2998 RMK A01 T02670193  RH  064%=      5-min Rain = 0
KAHS 171025Z 20012KT 27/19 A2998 RMK A01 T02670192  RH  064%=      5-min Rain = 0
KAHS 171026Z 19011KT 27/19 A2998 RMK A01 T02670192  RH  064%=      5-min Rain = 0
KAHS 171027Z 20009G14KT 27/19 A2998 RMK A01 T02660192  RH  064%=      5-min Rain = 0
KAHS 171028Z 19012KT 27/19 A2998 RMK A01 T02660193  RH  064%=      5-min Rain = 0
KAHS 171029Z 19012G17KT 27/19 A2998 RMK A01 T02660192  RH  064%=      5-min Rain = 0
KAHS 171030Z 19008G14KT 27/19 A2998 RMK A01 T02660192  RH  064%=      5-min Rain = 0
KAHS 171031Z 19012KT 27/19 A2998 RMK A01 T02660193  RH  064%=      5-min Rain = 0
KAHS 171032Z 20011KT 27/19 A2998 RMK A01 T02660192  RH  064%=      5-min Rain = 0
KAHS 171033Z 19012G17KT 27/19 A2998 RMK A01 T02660192  RH  064%=      5-min Rain = 0
KAHS 171034Z 19013KT 27/19 A2998 RMK A01 T02660193  RH  064%=      5-min Rain = 0
KAHS 171035Z 19012KT 27/19 A2998 RMK A01 T02660193  RH  064%=      5-min Rain = 0
KAHS 171036Z 19010KT 27/19 A2998 RMK A01 T02660193  RH  064%=      5-min Rain = 0
KAHS 171037Z 19010G15KT 27/19 A2998 RMK A01 T02650193  RH  065%=      5-min Rain = 0
KAHS 171038Z 19012KT 27/19 A2998 RMK A01 T02650193  RH  065%=      5-min Rain = 0
KAHS 171039Z 19011KT 27/19 A2998 RMK A01 T02650193  RH  065%=      5-min Rain = 0
KAHS 171040Z 19011KT 27/19 A2998 RMK A01 T02650193  RH  065%=      5-min Rain = 0
KAHS 171041Z 19015KT 27/19 A2998 RMK A01 T02650194  RH  065%=      5-min Rain = 0
KAHS 171042Z 19013KT 27/19 A2998 RMK A01 T02650193  RH  065%=      5-min Rain = 0
KAHS 171043Z 19010KT 27/19 A2998 RMK A01 T02650193  RH  065%=      5-min Rain = 0
KAHS 171044Z 19012G17KT 27/19 A2998 RMK A01 T02650194  RH  065%=      5-min Rain = 0
KAHS 171045Z 19011G18KT 27/19 A2998 RMK A01 T02650194  RH  065%=      5-min Rain = 0
KAHS 171046Z 19013KT 27/19 A2998 RMK A01 T02650194  RH  065%=      5-min Rain = 0
KAHS 171047Z 19010KT 27/19 A2998 RMK A01 T02650194  RH  065%=      5-min Rain = 0
KAHS 171048Z 19011G17KT 27/19 A2998 RMK A01 T02650194  RH  065%=      5-min Rain = 0
KAHS 171049Z 19014KT 26/19 A2998 RMK A01 T02640194  RH  065%=      5-min Rain = 0
KAHS 171050Z 20011KT 27/19 A2998 RMK A01 T02650194  RH  065%=      5-min Rain = 0
KAHS 171051Z 20011KT 27/19 A2998 RMK A01 T02650194  RH  065%=      5-min Rain = 0
KAHS 171052Z 19010G15KT 26/19 A2998 RMK A01 T02640194  RH  065%=      5-min Rain = 0
KAHS 171053Z 19009G14KT 26/19 A2998 RMK A01 T02640194  RH  065%=      5-min Rain = 0
KAHS 171054Z 19012KT 26/19 A2998 RMK A01 T02640194  RH  065%=      5-min Rain = 0
KAHS 171055Z 19011KT 26/19 A2998 RMK A01 T02640194  RH  066%=      5-min Rain = 0
KAHS 171056Z 20014KT 26/19 A2998 RMK A01 T02640194  RH  065%=      5-min Rain = 0
KAHS 171057Z 20010KT 26/19 A2998 RMK A01 T02640193  RH  065%=      5-min Rain = 0
KAHS 171058Z 20011KT 26/19 A2998 RMK A01 T02640194  RH  065%=      5-min Rain = 0
KAHS 171059Z 20010G16KT 26/19 A2998 RMK A01 T02640194  RH  065%=      5-min Rain = 0
KAHS 171100Z 18007KT 26/19 A2999 RMK A01 T02630193  RH  065%=      5-min Rain = 0
KAHS 171101Z 19008KT 26/19 A2999 RMK A01 T02630194  RH  066%=      5-min Rain = 0
KAHS 171102Z 20011KT 26/19 A2998 RMK A01 T02620194  RH  066%=      5-min Rain = 0
KAHS 171103Z 19013KT 26/19 A2998 RMK A01 T02630194  RH  066%=      5-min Rain = 0
KAHS 171104Z 20011KT 26/19 A2999 RMK A01 T02630194  RH  066%=      5-min Rain = 0
KAHS 171105Z 19011KT 26/19 A2999 RMK A01 T02630194  RH  066%=      5-min Rain = 0
KAHS 171106Z 20007KT 26/19 A2999 RMK A01 T02620194  RH  066%=      5-min Rain = 0
KAHS 171107Z 19008KT 26/19 A2999 RMK A01 T02620194  RH  066%=      5-min Rain = 0
KAHS 171108Z 20010KT 26/19 A2999 RMK A01 T02610194  RH  066%=      5-min Rain = 0
KAHS 171109Z 20011KT 26/19 A2999 RMK A01 T02610193  RH  066%=      5-min Rain = 0
KAHS 171110Z 20010KT 26/19 A2999 RMK A01 T02620194  RH  066%=      5-min Rain = 0
KAHS 171111Z 19009KT 26/19 A2999 RMK A01 T02610193  RH  066%=      5-min Rain = 0
KAHS 171112Z 20010KT 26/19 A2999 RMK A01 T02610193  RH  066%=      5-min Rain = 0
KAHS 171113Z 20010G15KT 26/19 A2999 RMK A01 T02610193  RH  066%=      5-min Rain = 0
KAHS 171114Z 20010KT 26/19 A2999 RMK A01 T02600192  RH  066%=      5-min Rain = 0
KAHS 171115Z 19011KT 26/19 A2999 RMK A01 T02600192  RH  066%=      5-min Rain = 0
KAHS 171116Z 19011KT 26/19 A2999 RMK A01 T02600192  RH  066%=      5-min Rain = 0
KAHS 171117Z 19010KT 26/19 A2999 RMK A01 T02600192  RH  066%=      5-min Rain = 0
KAHS 171118Z 20009KT 26/19 A2999 RMK A01 T02600192  RH  066%=      5-min Rain = 0
KAHS 171119Z 20008KT 26/19 A2999 RMK A01 T02590192  RH  066%=      5-min Rain = 0
KAHS 171120Z 19007KT 26/19 A2999 RMK A01 T02590192  RH  067%=      5-min Rain = 0
KAHS 171121Z 20007KT 26/19 A2999 RMK A01 T02580192  RH  067%=      5-min Rain = 0
KAHS 171122Z 20009KT 26/19 A2999 RMK A01 T02580192  RH  067%=      5-min Rain = 0
KAHS 171123Z 20007KT 26/19 A2999 RMK A01 T02580192  RH  067%=      5-min Rain = 0
KAHS 171124Z 19007KT 26/19 A2999 RMK A01 T02580192  RH  067%=      5-min Rain = 0
KAHS 171125Z 21007G13KT 26/19 A2999 RMK A01 T02580192  RH  067%=      5-min Rain = 0
KAHS 171126Z 19008KT 26/19 A2999 RMK A01 T02580193  RH  067%=      5-min Rain = 0
KAHS 171127Z 19008KT 26/19 A2999 RMK A01 T02570193  RH  068%=      5-min Rain = 0
KAHS 171128Z 20009KT 26/19 A2999 RMK A01 T02580193  RH  068%=      5-min Rain = 0
KAHS 171129Z 20008KT 26/19 A2999 RMK A01 T02580193  RH  067%=      5-min Rain = 0
KAHS 171130Z 20009KT 26/19 A2999 RMK A01 T02570192  RH  067%=      5-min Rain = 0
KAHS 171131Z 21009KT 26/19 A2999 RMK A01 T02570192  RH  067%=      5-min Rain = 0
KAHS 171132Z 21009KT 26/19 A2999 RMK A01 T02570192  RH  067%=      5-min Rain = 0
KAHS 171133Z 21010KT 26/19 A2999 RMK A01 T02570193  RH  067%=      5-min Rain = 0
KAHS 171134Z 19008KT 26/19 A2999 RMK A01 T02580193  RH  067%=      5-min Rain = 0
KAHS 171135Z 20006KT 26/19 A2999 RMK A01 T02570193  RH  068%=      5-min Rain = 0
KAHS 171136Z 20008KT 26/19 A2999 RMK A01 T02570193  RH  068%=      5-min Rain = 0
KAHS 171137Z 20012KT 26/19 A2999 RMK A01 T02560193  RH  068%=      5-min Rain = 0
KAHS 171138Z 22007KT 26/19 A2999 RMK A01 T02570193  RH  068%=      5-min Rain = 0
KAHS 171139Z 20008KT 26/19 A2999 RMK A01 T02560193  RH  068%=      5-min Rain = 0
KAHS 171140Z 21008KT 26/19 A2999 RMK A01 T02560193  RH  068%=      5-min Rain = 0
KAHS 171141Z 21008KT 26/19 A30 RMK A01 T02560193  RH  068%=      5-min Rain = 0
KAHS 171142Z 22010KT 26/19 A30 RMK A01 T02560194  RH  069%=      5-min Rain = 0
KAHS 171143Z 22011KT 26/19 A2999 RMK A01 T02560194  RH  069%=      5-min Rain = 0
KAHS 171144Z 21010KT 26/19 A30 RMK A01 T02560194  RH  069%=      5-min Rain = 0
KAHS 171145Z 21006KT 26/19 A30 RMK A01 T02550194  RH  069%=      5-min Rain = 0
KAHS 171146Z 20011G16KT 26/19 A30 RMK A01 T02550194  RH  069%=      5-min Rain = 0
KAHS 171147Z 21009KT 26/20 A30 RMK A01 T02550195  RH  069%=      5-min Rain = 0
KAHS 171148Z 21007KT 26/19 A30 RMK A01 T02550194  RH  069%=      5-min Rain = 0
KAHS 171149Z 21010KT 25/19 A30 RMK A01 T02540194  RH  069%=      5-min Rain = 0
KAHS 171150Z 21008KT 25/19 A30 RMK A01 T02540194  RH  069%=      5-min Rain = 0
KAHS 171151Z 21007KT 25/20 A30 RMK A01 T02540195  RH  070%=      5-min Rain = 0
KAHS 171152Z 21008KT 25/20 A30 RMK A01 T02540195  RH  070%=      5-min Rain = 0
KAHS 171153Z 20012KT 25/20 A30 RMK A01 T02540195  RH  070%=      5-min Rain = 0
KAHS 171154Z 21010KT 25/20 A30 RMK A01 T02540195  RH  070%=      5-min Rain = 0
KAHS 171155Z 21009KT 25/20 A30 RMK A01 T02540195  RH  070%=      5-min Rain = 0
KAHS 171156Z 21010KT 25/20 A30 RMK A01 T02540196  RH  070%=      5-min Rain = 0
KAHS 171157Z 21009KT 25/20 A30 RMK A01 T02540196  RH  070%=      5-min Rain = 0
KAHS 171158Z 20009KT 25/20 A30 RMK A01 T02540196  RH  070%=      5-min Rain = 0
KAHS 171159Z 21010KT 25/20 A30 RMK A01 T02540196  RH  070%=      5-min Rain = 0
KAHS 171200Z 21011KT 25/20 A30 RMK A01 T02540196  RH  070%=      5-min Rain = 0
KAHS 171201Z 21011KT 25/20 A2999 RMK A01 T02540196  RH  070%=      5-min Rain = 0
KAHS 171202Z 21009KT 25/20 A30 RMK A01 T02540196  RH  070%=      5-min Rain = 0
KAHS 171203Z 21008KT 25/20 A30 RMK A01 T02540196  RH  070%=      5-min Rain = 0
KAHS 171204Z 21011KT 25/20 A30 RMK A01 T02540197  RH  071%=      5-min Rain = 0
KAHS 171205Z 22012KT 25/20 A2999 RMK A01 T02540197  RH  071%=      5-min Rain = 0
KAHS 171206Z 21009KT 25/20 A30 RMK A01 T02540197  RH  070%=      5-min Rain = 0
KAHS 171207Z 20009KT 25/20 A30 RMK A01 T02540197  RH  071%=      5-min Rain = 0
KAHS 171208Z 21007KT 25/20 A30 RMK A01 T02540197  RH  071%=      5-min Rain = 0
KAHS 171209Z 20007KT 25/20 A30 RMK A01 T02540197  RH  071%=      5-min Rain = 0
KAHS 171210Z 20008KT 25/20 A30 RMK A01 T02540197  RH  071%=      5-min Rain = 0
KAHS 171211Z 21008KT 25/20 A30 RMK A01 T02540197  RH  071%=      5-min Rain = 0
KAHS 171212Z 21009KT 25/20 A30 RMK A01 T02540197  RH  071%=      5-min Rain = 0
KAHS 171213Z 21008KT 25/20 A30 RMK A01 T02540198  RH  071%=      5-min Rain = 0
KAHS 171214Z 20009KT 25/20 A30 RMK A01 T02540198  RH  071%=      5-min Rain = 0
KAHS 171215Z 21010KT 25/20 A30 RMK A01 T02540198  RH  071%=      5-min Rain = 0
KAHS 171216Z 21011KT 25/20 A30 RMK A01 T02540198  RH  071%=      5-min Rain = 0
KAHS 171217Z 20010KT 25/20 A30 RMK A01 T02540198  RH  071%=      5-min Rain = 0
KAHS 171218Z 20010KT 25/20 A30 RMK A01 T02540198  RH  071%=      5-min Rain = 0
KAHS 171219Z 20009KT 26/20 A30 RMK A01 T02550198  RH  071%=      5-min Rain = 0
KAHS 171220Z 21010KT 26/20 A30 RMK A01 T02550198  RH  071%=      5-min Rain = 0
KAHS 171221Z 21010KT 26/20 A30 RMK A01 T02550198  RH  071%=      5-min Rain = 0
KAHS 171222Z 19010KT 26/20 A30 RMK A01 T02550198  RH  071%=      5-min Rain = 0
KAHS 171223Z 20009KT 26/20 A30 RMK A01 T02550198  RH  071%=      5-min Rain = 0
KAHS 171224Z 20010KT 26/20 A30 RMK A01 T02550198  RH  071%=      5-min Rain = 0
KAHS 171225Z 20011KT 26/20 A30 RMK A01 T02550198  RH  071%=      5-min Rain = 0
KAHS 171226Z 21010KT 26/20 A30 RMK A01 T02550198  RH  071%=      5-min Rain = 0
KAHS 171227Z 20011G16KT 26/20 A30 RMK A01 T02560199  RH  071%=      5-min Rain = 0
KAHS 171228Z 20011KT 26/20 A30 RMK A01 T02560199  RH  071%=      5-min Rain = 0
KAHS 171229Z 20010KT 26/20 A30 RMK A01 T02560199  RH  071%=      5-min Rain = 0
KAHS 171230Z 20011KT 26/20 A30 RMK A01 T02560199  RH  071%=      5-min Rain = 0
KAHS 171231Z 19011KT 26/20 A30 RMK A01 T02560199  RH  071%=      5-min Rain = 0
KAHS 171232Z 20012G17KT 26/20 A30 RMK A01 T02560199  RH  070%=      5-min Rain = 0
KAHS 171233Z 21014KT 26/20 A30 RMK A01 T02570199  RH  070%=      5-min Rain = 0
KAHS 171234Z 20011KT 26/20 A30 RMK A01 T02570199  RH  070%=      5-min Rain = 0
KAHS 171235Z 20012KT 26/20 A30 RMK A01 T02570199  RH  070%=      5-min Rain = 0
KAHS 171236Z 19013KT 26/20 A30 RMK A01 T02580199  RH  070%=      5-min Rain = 0
KAHS 171237Z 19012KT 26/20 A30 RMK A01 T02580199  RH  070%=      5-min Rain = 0
KAHS 171238Z 20009KT 26/20 A30 RMK A01 T02580199  RH  070%=      5-min Rain = 0
KAHS 171239Z 20011KT 26/20 A30 RMK A01 T02580200  RH  070%=      5-min Rain = 0
KAHS 171240Z 19012KT 26/20 A30 RMK A01 T02580200  RH  070%=      5-min Rain = 0
KAHS 171241Z 19013KT 26/20 A30 RMK A01 T02580199  RH  070%=      5-min Rain = 0
KAHS 171242Z 20013KT 26/20 A30 RMK A01 T02590200  RH  070%=      5-min Rain = 0
KAHS 171243Z 20012KT 26/20 A30 RMK A01 T02590200  RH  070%=      5-min Rain = 0
KAHS 171244Z 20012KT 26/20 A30 RMK A01 T02590200  RH  070%=      5-min Rain = 0
KAHS 171245Z 20013KT 26/20 A30 RMK A01 T02590200  RH  070%=      5-min Rain = 0
KAHS 171246Z 21009KT 26/20 A30 RMK A01 T02600200  RH  070%=      5-min Rain = 0
KAHS 171247Z 20010KT 26/20 A30 RMK A01 T02600200  RH  069%=      5-min Rain = 0
KAHS 171248Z 20011KT 26/20 A30 RMK A01 T02600200  RH  069%=      5-min Rain = 0
KAHS 171249Z 20012KT 26/20 A30 RMK A01 T02600200  RH  069%=      5-min Rain = 0
KAHS 171250Z 20009KT 26/20 A30 RMK A01 T02610200  RH  069%=      5-min Rain = 0
KAHS 171251Z 20011KT 26/20 A3001 RMK A01 T02620201  RH  069%=      5-min Rain = 0
KAHS 171252Z 21011KT 26/20 A3001 RMK A01 T02620201  RH  069%=      5-min Rain = 0
KAHS 171253Z 21012KT 26/20 A3001 RMK A01 T02620200  RH  069%=      5-min Rain = 0
KAHS 171254Z 20011G16KT 26/20 A3001 RMK A01 T02620200  RH  069%=      5-min Rain = 0
KAHS 171255Z 21012KT 26/20 A3001 RMK A01 T02620201  RH  069%=      5-min Rain = 0
KAHS 171256Z 21010KT 26/20 A3001 RMK A01 T02620201  RH  069%=      5-min Rain = 0
KAHS 171257Z 21009KT 26/20 A3001 RMK A01 T02630201  RH  069%=      5-min Rain = 0
KAHS 171258Z 21009G14KT 26/20 A3001 RMK A01 T02630201  RH  069%=      5-min Rain = 0
KAHS 171259Z 21010KT 26/20 A3001 RMK A01 T02640201  RH  069%=      5-min Rain = 0
KAHS 171300Z 20011KT 26/20 A3001 RMK A01 T02640201  RH  069%=      5-min Rain = 0
KAHS 171301Z 21009KT 26/20 A3001 RMK A01 T02640201  RH  068%=      5-min Rain = 0
KAHS 171302Z 21010KT 27/20 A3001 RMK A01 T02650201  RH  068%=      5-min Rain = 0
KAHS 171303Z 20010KT 26/20 A3001 RMK A01 T02640201  RH  068%=      5-min Rain = 0
KAHS 171304Z 21009KT 27/20 A3001 RMK A01 T02650202  RH  068%=      5-min Rain = 0
KAHS 171305Z 21010KT 27/20 A3001 RMK A01 T02650202  RH  068%=      5-min Rain = 0
KAHS 171306Z 22011KT 27/20 A3001 RMK A01 T02660202  RH  068%=      5-min Rain = 0
KAHS 171307Z 22014KT 27/20 A3001 RMK A01 T02660202  RH  068%=      5-min Rain = 0
KAHS 171308Z 22013KT 27/20 A3001 RMK A01 T02650201  RH  068%=      5-min Rain = 0
KAHS 171309Z 22011KT 27/20 A3001 RMK A01 T02650202  RH  068%=      5-min Rain = 0
KAHS 171310Z 23013KT 27/20 A3001 RMK A01 T02660202  RH  068%=      5-min Rain = 0
KAHS 171311Z 23010KT 27/20 A3001 RMK A01 T02660202  RH  068%=      5-min Rain = 0
KAHS 171312Z 23012KT 27/20 A3001 RMK A01 T02660202  RH  068%=      5-min Rain = 0
KAHS 171313Z 22011KT 27/20 A3002 RMK A01 T02660202  RH  068%=      5-min Rain = 0
KAHS 171314Z 21012KT 27/20 A3002 RMK A01 T02660202  RH  068%=      5-min Rain = 0
KAHS 171315Z 22013G19KT 27/20 A3002 RMK A01 T02670202  RH  068%=      5-min Rain = 0
KAHS 171316Z 22012G17KT 27/20 A3002 RMK A01 T02660201  RH  068%=      5-min Rain = 0
KAHS 171317Z 23014KT 27/20 A3002 RMK A01 T02660202  RH  068%=      5-min Rain = 0
KAHS 171318Z 23012KT 27/20 A3002 RMK A01 T02660202  RH  068%=      5-min Rain = 0
KAHS 171319Z 22010KT 27/20 A3002 RMK A01 T02660202  RH  068%=      5-min Rain = 0
KAHS 171320Z 21009KT 27/20 A3002 RMK A01 T02670202  RH  067%=      5-min Rain = 0
KAHS 171321Z 22010KT 27/20 A3002 RMK A01 T02680202  RH  067%=      5-min Rain = 0
KAHS 171322Z 21012KT 27/20 A3002 RMK A01 T02680202  RH  067%=      5-min Rain = 0
KAHS 171323Z 21014KT 27/20 A3002 RMK A01 T02680201  RH  067%=      5-min Rain = 0
KAHS 171324Z 21011KT 27/20 A3002 RMK A01 T02680202  RH  067%=      5-min Rain = 0
KAHS 171325Z 19013KT 27/20 A3002 RMK A01 T02680202  RH  067%=      5-min Rain = 0
KAHS 171326Z 19010KT 27/20 A3002 RMK A01 T02680202  RH  067%=      5-min Rain = 0
KAHS 171327Z 20010KT 27/20 A3002 RMK A01 T02690203  RH  067%=      5-min Rain = 0
KAHS 171328Z 21010KT 27/20 A3002 RMK A01 T02690202  RH  067%=      5-min Rain = 0
KAHS 171329Z 21012G21KT 27/20 A3002 RMK A01 T02690203  RH  067%=      5-min Rain = 0
KAHS 171330Z 20015KT 27/20 A3002 RMK A01 T02690202  RH  067%=      5-min Rain = 0
KAHS 171331Z 19013KT 27/20 A3002 RMK A01 T02680202  RH  067%=      5-min Rain = 0
KAHS 171332Z 19013KT 27/20 A3002 RMK A01 T02690203  RH  067%=      5-min Rain = 0
KAHS 171333Z 20010KT 27/20 A3002 RMK A01 T02690203  RH  067%=      5-min Rain = 0
KAHS 171334Z 19008KT 27/20 A3002 RMK A01 T02700204  RH  067%=      5-min Rain = 0
KAHS 171335Z 20008KT 27/21 A3002 RMK A01 T02720205  RH  067%=      5-min Rain = 0
KAHS 171336Z 19012KT 27/20 A3002 RMK A01 T02730204  RH  066%=      5-min Rain = 0
KAHS 171337Z 21011KT 27/20 A3002 RMK A01 T02720203  RH  066%=      5-min Rain = 0
KAHS 171338Z 21011KT 27/20 A3002 RMK A01 T02710202  RH  066%=      5-min Rain = 0
KAHS 171339Z 20010KT 27/20 A3002 RMK A01 T02710203  RH  066%=      5-min Rain = 0
KAHS 171340Z 21008KT 27/20 A3002 RMK A01 T02730204  RH  066%=      5-min Rain = 0
KAHS 171341Z 20012KT 27/20 A3002 RMK A01 T02740204  RH  066%=      5-min Rain = 0
KAHS 171342Z 20012KT 27/20 A3002 RMK A01 T02730203  RH  066%=      5-min Rain = 0
KAHS 171343Z 21014KT 27/20 A3002 RMK A01 T02730203  RH  066%=      5-min Rain = 0
KAHS 171344Z 21012KT 27/20 A3002 RMK A01 T02730203  RH  066%=      5-min Rain = 0
KAHS 171345Z 20012KT 27/20 A3002 RMK A01 T02740203  RH  065%=      5-min Rain = 0
KAHS 171346Z 20013G18KT 28/20 A3002 RMK A01 T02750203  RH  065%=      5-min Rain = 0
KAHS 171347Z 19014KT 27/20 A3002 RMK A01 T02740202  RH  065%=      5-min Rain = 0
KAHS 171348Z 20014KT 27/20 A3002 RMK A01 T02740202  RH  065%=      5-min Rain = 0
KAHS 171349Z 22010KT 28/20 A3002 RMK A01 T02750203  RH  065%=      5-min Rain = 0
KAHS 171350Z 21010G15KT 28/20 A3002 RMK A01 T02770203  RH  064%=      5-min Rain = 0
KAHS 171351Z 21016KT 28/20 A3002 RMK A01 T02760202  RH  064%=      5-min Rain = 0
KAHS 171352Z 21012KT 28/20 A3002 RMK A01 T02750202  RH  064%=      5-min Rain = 0
KAHS 171353Z 22010KT 28/20 A3003 RMK A01 T02760203  RH  064%=      5-min Rain = 0
KAHS 171354Z 21010G15KT 28/20 A3003 RMK A01 T02780204  RH  064%=      5-min Rain = 0
KAHS 171355Z 21013KT 28/20 A3003 RMK A01 T02780203  RH  063%=      5-min Rain = 0
KAHS 171356Z 22009KT 28/20 A3003 RMK A01 T02790203  RH  064%=      5-min Rain = 0
KAHS 171357Z 21008KT 28/20 A3003 RMK A01 T02800204  RH  064%=      5-min Rain = 0
KAHS 171358Z 22010KT 28/20 A3003 RMK A01 T02810204  RH  063%=      5-min Rain = 0
KAHS 171359Z 20009KT 28/21 A3003 RMK A01 T02820205  RH  063%=      5-min Rain = 0
KAHS 171400Z 20013KT 28/20 A3003 RMK A01 T02820203  RH  062%=      5-min Rain = 0
KAHS 171401Z 21010KT 28/20 A3003 RMK A01 T02800202  RH  063%=      5-min Rain = 0
KAHS 171402Z 21011KT 28/20 A3003 RMK A01 T02810203  RH  063%=      5-min Rain = 0
KAHS 171403Z 21013KT 28/20 A3003 RMK A01 T02800203  RH  063%=      5-min Rain = 0
KAHS 171404Z 21011KT 28/20 A3003 RMK A01 T02800202  RH  063%=      5-min Rain = 0
KAHS 171405Z 21015KT 28/20 A3003 RMK A01 T02810203  RH  063%=      5-min Rain = 0
KAHS 171406Z 21014KT 28/20 A3002 RMK A01 T02800202  RH  062%=      5-min Rain = 0
KAHS 171407Z 20012KT 28/20 A3003 RMK A01 T02790202  RH  063%=      5-min Rain = 0
KAHS 171408Z 21010KT 28/20 A3003 RMK A01 T02800202  RH  063%=      5-min Rain = 0
KAHS 171409Z 20011KT 28/20 A3003 RMK A01 T02810203  RH  063%=      5-min Rain = 0
KAHS 171410Z 20010KT 28/20 A3003 RMK A01 T02820203  RH  062%=      5-min Rain = 0
KAHS 171411Z 21009KT 28/20 A3003 RMK A01 T02840204  RH  062%=      5-min Rain = 0
KAHS 171412Z 21011KT 28/20 A3003 RMK A01 T02840203  RH  062%=      5-min Rain = 0
KAHS 171413Z 22008KT 28/20 A3003 RMK A01 T02830204  RH  062%=      5-min Rain = 0
KAHS 171414Z 21011G16KT 29/20 A3003 RMK A01 T02850204  RH  061%=      5-min Rain = 0
KAHS 171415Z 22014KT 29/20 A3003 RMK A01 T02860202  RH  060%=      5-min Rain = 0
KAHS 171416Z 22015KT 28/20 A3003 RMK A01 T02840200  RH  060%=      5-min Rain = 0
KAHS 171417Z 22012KT 28/20 A3003 RMK A01 T02810200  RH  061%=      5-min Rain = 0
KAHS 171418Z 22014KT 28/20 A3003 RMK A01 T02820201  RH  061%=      5-min Rain = 0
KAHS 171419Z 22013G18KT 28/20 A3003 RMK A01 T02820201  RH  061%=      5-min Rain = 0
KAHS 171420Z 22015KT 28/20 A3003 RMK A01 T02820201  RH  061%=      5-min Rain = 0
KAHS 171421Z 23014KT 28/20 A3003 RMK A01 T02820200  RH  061%=      5-min Rain = 0
KAHS 171422Z 23014KT 28/20 A3003 RMK A01 T02830201  RH  061%=      5-min Rain = 0
KAHS 171423Z 23009KT 28/20 A3003 RMK A01 T02820202  RH  062%=      5-min Rain = 0
KAHS 171424Z 21008G13KT 29/20 A3003 RMK A01 T02850204  RH  061%=      5-min Rain = 0
KAHS 171425Z 20011G16KT 29/20 A3003 RMK A01 T02870204  RH  061%=      5-min Rain = 0
KAHS 171426Z 20013G18KT 29/20 A3003 RMK A01 T02880203  RH  060%=      5-min Rain = 0
KAHS 171427Z 19011KT 29/20 A3003 RMK A01 T02880202  RH  060%=      5-min Rain = 0
KAHS 171428Z 20011KT 29/20 A3003 RMK A01 T02880202  RH  060%=      5-min Rain = 0
KAHS 171429Z 19011KT 29/20 A3003 RMK A01 T02880202  RH  060%=      5-min Rain = 0
KAHS 171430Z 19013KT 29/20 A3003 RMK A01 T02880202  RH  060%=      5-min Rain = 0
KAHS 171431Z 19012KT 29/20 A3003 RMK A01 T02870202  RH  060%=      5-min Rain = 0
KAHS 171432Z 21010KT 29/20 A3003 RMK A01 T02870202  RH  060%=      5-min Rain = 0
KAHS 171433Z 20011KT 29/20 A3003 RMK A01 T02860202  RH  060%=      5-min Rain = 0
KAHS 171434Z 21011KT 29/20 A3003 RMK A01 T02860202  RH  061%=      5-min Rain = 0
KAHS 171435Z 21010KT 29/20 A3003 RMK A01 T02880203  RH  060%=      5-min Rain = 0
KAHS 171436Z 20013KT 29/20 A3003 RMK A01 T02900203  RH  059%=      5-min Rain = 0
KAHS 171437Z 20013KT 29/20 A3003 RMK A01 T02890201  RH  059%=      5-min Rain = 0
KAHS 171438Z 21012G18KT 29/20 A3003 RMK A01 T02880202  RH  060%=      5-min Rain = 0
KAHS 171439Z 21012KT 29/20 A3003 RMK A01 T02880201  RH  059%=      5-min Rain = 0
KAHS 171440Z 20012KT 29/20 A3003 RMK A01 T02870201  RH  060%=      5-min Rain = 0
KAHS 171441Z 21011KT 29/20 A3003 RMK A01 T02890202  RH  060%=      5-min Rain = 0
KAHS 171442Z 20011KT 29/20 A3003 RMK A01 T02890202  RH  059%=      5-min Rain = 0
KAHS 171443Z 22011KT 29/20 A3003 RMK A01 T02890202  RH  059%=      5-min Rain = 0
KAHS 171444Z 21012KT 29/20 A3003 RMK A01 T02890202  RH  059%=      5-min Rain = 0
KAHS 171445Z 21011KT 29/20 A3003 RMK A01 T02900202  RH  059%=      5-min Rain = 0
KAHS 171446Z 22011KT 29/20 A3003 RMK A01 T02910202  RH  059%=      5-min Rain = 0
KAHS 171447Z 22011KT 29/20 A3003 RMK A01 T02910202  RH  059%=      5-min Rain = 0
KAHS 171448Z 22009KT 29/20 A3003 RMK A01 T02920203  RH  059%=      5-min Rain = 0
KAHS 171449Z 22009KT 29/20 A3003 RMK A01 T02930203  RH  058%=      5-min Rain = 0
KAHS 171450Z 21010KT 29/20 A3003 RMK A01 T02940204  RH  058%=      5-min Rain = 0
KAHS 171451Z 20009KT 29/20 A3003 RMK A01 T02930203  RH  059%=      5-min Rain = 0
KAHS 171452Z 20010KT 29/20 A3003 RMK A01 T02940204  RH  058%=      5-min Rain = 0
KAHS 171453Z 20011KT 30/20 A3003 RMK A01 T02950204  RH  058%=      5-min Rain = 0
KAHS 171454Z 19012KT 30/20 A3003 RMK A01 T02950203  RH  058%=      5-min Rain = 0
KAHS 171455Z 20011KT 29/20 A3003 RMK A01 T02940203  RH  058%=      5-min Rain = 0
KAHS 171456Z 20013KT 29/20 A3003 RMK A01 T02940202  RH  058%=      5-min Rain = 0
KAHS 171457Z 20008G14KT 29/20 A3003 RMK A01 T02940203  RH  058%=      5-min Rain = 0
KAHS 171458Z 20008G13KT 30/21 A3003 RMK A01 T02980205  RH  057%=      5-min Rain = 0
KAHS 171459Z 20010KT 30/20 A3003 RMK A01 T02980203  RH  057%=      5-min Rain = 0
KAHS 171500Z 22007G12KT 30/21 A3003 RMK A01 T03000205  RH  057%=      5-min Rain = 0
KAHS 171501Z 22010KT 30/20 A3003 RMK A01 T03010203  RH  056%=      5-min Rain = 0
KAHS 171502Z 21009G15KT 30/20 A3003 RMK A01 T02980202  RH  056%=      5-min Rain = 0
KAHS 171503Z 21010KT 30/20 A3003 RMK A01 T02970202  RH  057%=      5-min Rain = 0
KAHS 171504Z 21010KT 30/20 A3003 RMK A01 T02960202  RH  057%=      5-min Rain = 0
KAHS 171505Z 22010G16KT 30/20 A3003 RMK A01 T02970202  RH  057%=      5-min Rain = 0
KAHS 171506Z 20010G15KT 30/20 A3003 RMK A01 T03010203  RH  056%=      5-min Rain = 0
KAHS 171507Z 21012G17KT 30/20 A3003 RMK A01 T03010201  RH  055%=      5-min Rain = 0
KAHS 171508Z 22013KT 30/20 A3003 RMK A01 T02990200  RH  055%=      5-min Rain = 0
KAHS 171509Z 21009KT 30/20 A3003 RMK A01 T02990202  RH  056%=      5-min Rain = 0
KAHS 171510Z 21009G14KT 30/20 A3003 RMK A01 T03020203  RH  055%=      5-min Rain = 0
KAHS 171511Z 21008G13KT 30/20 A3003 RMK A01 T03020202  RH  055%=      5-min Rain = 0
KAHS 171512Z 21007KT 31/20 A3003 RMK A01 T03050204  RH  055%=      5-min Rain = 0
KAHS 171513Z 20011KT 31/20 A3003 RMK A01 T03070203  RH  054%=      5-min Rain = 0
KAHS 171514Z 20011KT 31/20 A3003 RMK A01 T03050202  RH  054%=      5-min Rain = 0
KAHS 171515Z 18010KT 30/20 A3003 RMK A01 T03030203  RH  055%=      5-min Rain = 0
KAHS 171516Z 18010KT 30/21 A3003 RMK A01 T03040206  RH  056%=      5-min Rain = 0
KAHS 171517Z 19011KT 31/20 A3003 RMK A01 T03050204  RH  055%=      5-min Rain = 0
KAHS 171518Z 20014KT 30/20 A3002 RMK A01 T03040204  RH  055%=      5-min Rain = 0
KAHS 171519Z 18013KT 30/20 A3002 RMK A01 T03010201  RH  055%=      5-min Rain = 0
KAHS 171520Z 18013KT 30/20 A3002 RMK A01 T03010201  RH  055%=      5-min Rain = 0
KAHS 171521Z 18013KT 30/20 A3003 RMK A01 T03010202  RH  055%=      5-min Rain = 0
KAHS 171522Z 19015KT 30/20 A3003 RMK A01 T03020201  RH  055%=      5-min Rain = 0
KAHS 171523Z 19012KT 30/20 A3003 RMK A01 T03000201  RH  055%=      5-min Rain = 0
KAHS 171524Z 18010KT 30/20 A3003 RMK A01 T03000201  RH  056%=      5-min Rain = 0
KAHS 171525Z 19010KT 30/20 A3003 RMK A01 T03020202  RH  055%=      5-min Rain = 0
KAHS 171526Z 21010KT 30/20 A3003 RMK A01 T03040201  RH  054%=      5-min Rain = 0
KAHS 171527Z 21010KT 31/20 A3003 RMK A01 T03050201  RH  054%=      5-min Rain = 0
KAHS 171528Z 20009KT 31/20 A3003 RMK A01 T03070203  RH  054%=      5-min Rain = 0
KAHS 171529Z 19011KT 31/20 A3003 RMK A01 T03080202  RH  053%=      5-min Rain = 0
KAHS 171530Z 18008KT 31/20 A3003 RMK A01 T03070204  RH  054%=      5-min Rain = 0
KAHS 171531Z 17013KT 31/20 A3003 RMK A01 T03080203  RH  054%=      5-min Rain = 0
KAHS 171532Z 19013KT 31/20 A3003 RMK A01 T03070202  RH  053%=      5-min Rain = 0
KAHS 171533Z 18010KT 31/20 A3003 RMK A01 T03050202  RH  054%=      5-min Rain = 0
KAHS 171534Z 18008KT 31/20 A3003 RMK A01 T03050203  RH  055%=      5-min Rain = 0
KAHS 171535Z 18008KT 31/21 A3003 RMK A01 T03070205  RH  054%=      5-min Rain = 0
KAHS 171536Z 19008G15KT 31/21 A3003 RMK A01 T03110206  RH  054%=      5-min Rain = 0
KAHS 171537Z 17013KT 31/20 A3003 RMK A01 T03130204  RH  052%=      5-min Rain = 0
KAHS 171538Z 18013KT 31/20 A3003 RMK A01 T03100202  RH  053%=      5-min Rain = 0
KAHS 171539Z 19010KT 31/20 A3003 RMK A01 T03080203  RH  053%=      5-min Rain = 0
KAHS 171540Z 18012KT 31/20 A3003 RMK A01 T03090204  RH  054%=      5-min Rain = 0
KAHS 171541Z 18012KT 31/20 A3003 RMK A01 T03080202  RH  053%=      5-min Rain = 0
KAHS 171542Z 17010KT 31/20 A3003 RMK A01 T03090202  RH  053%=      5-min Rain = 0
KAHS 171543Z 18011KT 31/20 A3003 RMK A01 T03090202  RH  053%=      5-min Rain = 0
KAHS 171544Z 19010KT 31/20 A3003 RMK A01 T03080202  RH  053%=      5-min Rain = 0
KAHS 171545Z 19008KT 31/20 A3003 RMK A01 T03070204  RH  054%=      5-min Rain = 0
KAHS 171546Z 20010KT 31/20 A3003 RMK A01 T03100204  RH  053%=      5-min Rain = 0
KAHS 171547Z 18009KT 31/20 A3003 RMK A01 T03120204  RH  053%=      5-min Rain = 0
KAHS 171548Z 18010KT 31/20 A3003 RMK A01 T03130204  RH  052%=      5-min Rain = 0
KAHS 171549Z 19008KT 31/20 A3003 RMK A01 T03130204  RH  052%=      5-min Rain = 0
KAHS 171550Z 19012KT 31/20 A3003 RMK A01 T03130203  RH  052%=      5-min Rain = 0
KAHS 171551Z 20014KT 31/20 A3003 RMK A01 T03120201  RH  052%=      5-min Rain = 0
KAHS 171552Z 20011KT 31/20 A3003 RMK A01 T03090199  RH  052%=      5-min Rain = 0
KAHS 171553Z 19011KT 31/20 A3003 RMK A01 T03080202  RH  053%=      5-min Rain = 0
KAHS 171554Z 18012KT 31/20 A3003 RMK A01 T03090201  RH  053%=      5-min Rain = 0
KAHS 171555Z 20012KT 31/20 A3003 RMK A01 T03100200  RH  052%=      5-min Rain = 0
KAHS 171556Z 19010KT 31/20 A3003 RMK A01 T03100200  RH  052%=      5-min Rain = 0
KAHS 171557Z 19008KT 31/20 A3003 RMK A01 T03110200  RH  052%=      5-min Rain = 0
KAHS 171558Z 18013KT 31/20 A3003 RMK A01 T03110201  RH  052%=      5-min Rain = 0
KAHS 171559Z 17011KT 31/20 A3003 RMK A01 T03110202  RH  052%=      5-min Rain = 0
KAHS 171600Z 18012KT 31/20 A3003 RMK A01 T03110201  RH  052%=      5-min Rain = 0
KAHS 171601Z 18012KT 31/20 A3003 RMK A01 T03110202  RH  052%=      5-min Rain = 0
KAHS 171602Z 19011KT 31/20 A3003 RMK A01 T03120201  RH  052%=      5-min Rain = 0
KAHS 171603Z 18010KT 31/20 A3003 RMK A01 T03120202  RH  052%=      5-min Rain = 0
KAHS 171604Z 19009KT 31/20 A3003 RMK A01 T03140203  RH  052%=      5-min Rain = 0
KAHS 171605Z 17011KT 32/20 A3003 RMK A01 T03160202  RH  051%=      5-min Rain = 0
KAHS 171606Z 18011KT 32/20 A3003 RMK A01 T03150201  RH  051%=      5-min Rain = 0
KAHS 171607Z 19013KT 32/20 A3003 RMK A01 T03160203  RH  051%=      5-min Rain = 0
KAHS 171608Z 19012KT 31/20 A3003 RMK A01 T03140202  RH  052%=      5-min Rain = 0
KAHS 171609Z 18011KT 31/20 A3003 RMK A01 T03120202  RH  052%=      5-min Rain = 0
KAHS 171610Z 18007KT 31/20 A3003 RMK A01 T03120203  RH  052%=      5-min Rain = 0
KAHS 171611Z 17010KT 32/21 A3003 RMK A01 T03170205  RH  052%=      5-min Rain = 0
KAHS 171612Z 17009KT 32/20 A3003 RMK A01 T03170202  RH  050%=      5-min Rain = 0
KAHS 171613Z 19009KT 32/20 A3003 RMK A01 T03170203  RH  051%=      5-min Rain = 0
KAHS 171614Z 19011KT 32/20 A3003 RMK A01 T03170202  RH  050%=      5-min Rain = 0
KAHS 171615Z 18011KT 32/20 A3003 RMK A01 T03180202  RH  050%=      5-min Rain = 0
KAHS 171616Z 18012KT 32/20 A3003 RMK A01 T03170199  RH  050%=      5-min Rain = 0
KAHS 171617Z 17012KT 32/20 A3003 RMK A01 T03150201  RH  051%=      5-min Rain = 0
KAHS 171618Z 17012KT 32/20 A3003 RMK A01 T03170201  RH  050%=      5-min Rain = 0
KAHS 171619Z 17013KT 32/20 A3003 RMK A01 T03200202  RH  050%=      5-min Rain = 0
KAHS 171620Z 18011KT 32/20 A3003 RMK A01 T03200201  RH  049%=      5-min Rain = 0
KAHS 171621Z 17011KT 32/20 A3003 RMK A01 T03200201  RH  050%=      5-min Rain = 0
KAHS 171622Z 18012KT 32/20 A3003 RMK A01 T03200200  RH  049%=      5-min Rain = 0
KAHS 171623Z 19011KT 32/20 A3003 RMK A01 T03200202  RH  050%=      5-min Rain = 0
KAHS 171624Z 19008KT 32/20 A3003 RMK A01 T03200202  RH  050%=      5-min Rain = 0
KAHS 171625Z 18010KT 32/20 A3003 RMK A01 T03240204  RH  049%=      5-min Rain = 0
KAHS 171626Z 18011KT 33/20 A3003 RMK A01 T03250202  RH  048%=      5-min Rain = 0
KAHS 171627Z 20009KT 32/20 A3003 RMK A01 T03230201  RH  049%=      5-min Rain = 0
KAHS 171628Z 18011G16KT 32/20 A3002 RMK A01 T03220202  RH  049%=      5-min Rain = 0
KAHS 171629Z 21007KT 32/20 A3003 RMK A01 T03240202  RH  049%=      5-min Rain = 0
KAHS 171630Z 19009KT 32/20 A3002 RMK A01 T03230200  RH  048%=      5-min Rain = 0
KAHS 171631Z 18010KT 32/20 A3002 RMK A01 T03210202  RH  049%=      5-min Rain = 0
KAHS 171632Z 19011G16KT 32/20 A3002 RMK A01 T03220202  RH  049%=      5-min Rain = 0
KAHS 171633Z 18011KT 32/20 A3002 RMK A01 T03220202  RH  049%=      5-min Rain = 0
KAHS 171634Z 19011KT 32/20 A3002 RMK A01 T03200200  RH  049%=      5-min Rain = 0
KAHS 171635Z 18012G17KT 32/20 A3002 RMK A01 T03210202  RH  050%=      5-min Rain = 0
KAHS 171636Z 18013KT 32/20 A3002 RMK A01 T03200200  RH  049%=      5-min Rain = 0
KAHS 171637Z 18012KT 32/20 A3002 RMK A01 T03200200  RH  049%=      5-min Rain = 0
KAHS 171638Z 18011KT 32/20 A3002 RMK A01 T03190199  RH  049%=      5-min Rain = 0
KAHS 171639Z 17008KT 32/20 A3002 RMK A01 T03190200  RH  049%=      5-min Rain = 0
KAHS 171640Z 17013KT 32/20 A3002 RMK A01 T03210200  RH  049%=      5-min Rain = 0
KAHS 171641Z 16011KT 32/20 A3002 RMK A01 T03200200  RH  049%=      5-min Rain = 0
KAHS 171642Z 20008KT 32/20 A3002 RMK A01 T03230203  RH  049%=      5-min Rain = 0
KAHS 171643Z 19009KT 33/20 A3002 RMK A01 T03250202  RH  049%=      5-min Rain = 0
KAHS 171644Z 17015KT 33/20 A3002 RMK A01 T03270202  RH  048%=      5-min Rain = 0
KAHS 171645Z 18013KT 33/20 A3002 RMK A01 T03260200  RH  048%=      5-min Rain = 0
KAHS 171646Z 19014KT 32/20 A3002 RMK A01 T03230199  RH  048%=      5-min Rain = 0
KAHS 171647Z 19012KT 32/20 A3002 RMK A01 T03210199  RH  048%=      5-min Rain = 0
KAHS 171648Z 19009KT 32/20 A3002 RMK A01 T03200198  RH  049%=      5-min Rain = 0
KAHS 171649Z 20009G16KT 32/20 A3002 RMK A01 T03220201  RH  049%=      5-min Rain = 0
KAHS 171650Z 19013KT 32/20 A3002 RMK A01 T03240198  RH  048%=      5-min Rain = 0
KAHS 171651Z 19010KT 32/20 A3002 RMK A01 T03220199  RH  048%=      5-min Rain = 0
KAHS 171652Z 18009KT 32/20 A3002 RMK A01 T03230201  RH  049%=      5-min Rain = 0
KAHS 171653Z 20008G14KT 33/20 A3002 RMK A01 T03280203  RH  048%=      5-min Rain = 0
KAHS 171654Z 22012KT 33/20 A3002 RMK A01 T03290199  RH  046%=      5-min Rain = 0
KAHS 171655Z 19011G16KT 33/20 A3002 RMK A01 T03290200  RH  047%=      5-min Rain = 0
KAHS 171656Z 19012KT 33/20 A3002 RMK A01 T03290199  RH  046%=      5-min Rain = 0
KAHS 171657Z 19012G17KT 33/20 A3002 RMK A01 T03290198  RH  046%=      5-min Rain = 0
KAHS 171658Z 19010KT 33/20 A3002 RMK A01 T03280200  RH  047%=      5-min Rain = 0
KAHS 171659Z 19011KT 33/20 A3002 RMK A01 T03270198  RH  046%=      5-min Rain = 0
KAHS 171700Z 19010KT 33/20 A3002 RMK A01 T03260197  RH  047%=      5-min Rain = 0
KAHS 171701Z 19013KT 33/20 A3002 RMK A01 T03270198  RH  047%=      5-min Rain = 0
KAHS 171702Z 18013KT 33/20 A3002 RMK A01 T03260199  RH  047%=      5-min Rain = 0
KAHS 171703Z 18011KT 33/20 A3002 RMK A01 T03280200  RH  047%=      5-min Rain = 0
KAHS 171704Z 18012KT 33/20 A3002 RMK A01 T03300198  RH  046%=      5-min Rain = 0
KAHS 171705Z 20011KT 33/20 A3002 RMK A01 T03270197  RH  046%=      5-min Rain = 0
KAHS 171706Z 20009KT 33/20 A3002 RMK A01 T03260198  RH  047%=      5-min Rain = 0
KAHS 171707Z 19009KT 33/20 A3002 RMK A01 T03260200  RH  047%=      5-min Rain = 0
KAHS 171708Z 17011KT 33/20 A3002 RMK A01 T03300200  RH  046%=      5-min Rain = 0
KAHS 171709Z 18012KT 33/20 A3002 RMK A01 T03330200  RH  046%=      5-min Rain = 0
KAHS 171710Z 18012KT 33/20 A3002 RMK A01 T03310197  RH  045%=      5-min Rain = 0
KAHS 171711Z 19010KT 33/20 A3002 RMK A01 T03280197  RH  046%=      5-min Rain = 0
KAHS 171712Z 18010KT 33/20 A3002 RMK A01 T03300199  RH  046%=      5-min Rain = 0
KAHS 171713Z 20010KT 33/20 A3002 RMK A01 T03330199  RH  045%=      5-min Rain = 0
KAHS 171714Z 18009G15KT 33/20 A3002 RMK A01 T03330198  RH  045%=      5-min Rain = 0
KAHS 171715Z 15012KT 33/19 A3002 RMK A01 T03310194  RH  045%=      5-min Rain = 0
KAHS 171716Z 18013G18KT 33/20 A3002 RMK A01 T03290196  RH  046%=      5-min Rain = 0
KAHS 171717Z 20012KT 33/19 A3002 RMK A01 T03290194  RH  045%=      5-min Rain = 0
KAHS 171718Z 19009KT 33/20 A3002 RMK A01 T03290196  RH  045%=      5-min Rain = 0
KAHS 171719Z 19012KT 33/20 A3002 RMK A01 T03330196  RH  045%=      5-min Rain = 0
KAHS 171720Z 18013KT 33/19 A3002 RMK A01 T03330194  RH  044%=      5-min Rain = 0
KAHS 171721Z 17011KT 33/19 A3002 RMK A01 T03320192  RH  044%=      5-min Rain = 0
KAHS 171722Z 18012KT 33/19 A3002 RMK A01 T03320194  RH  044%=      5-min Rain = 0
KAHS 171723Z 18011KT 34/20 A3002 RMK A01 T03350196  RH  044%=      5-min Rain = 0
KAHS 171724Z 18011KT 34/20 A3002 RMK A01 T03370195  RH  043%=      5-min Rain = 0
KAHS 171725Z 19009KT 34/20 A3002 RMK A01 T03350195  RH  044%=      5-min Rain = 0
KAHS 171726Z 19012KT 34/20 A3002 RMK A01 T03360196  RH  044%=      5-min Rain = 0
KAHS 171727Z 21008KT 34/20 A3002 RMK A01 T03360195  RH  044%=      5-min Rain = 0
KAHS 171728Z 21008KT 33/19 A3002 RMK A01 T03330194  RH  044%=      5-min Rain = 0
KAHS 171729Z 18012KT 33/20 A3002 RMK A01 T03340197  RH  044%=      5-min Rain = 0
KAHS 171730Z 16010KT 33/20 A3002 RMK A01 T03340195  RH  044%=      5-min Rain = 0
KAHS 171731Z 16009KT 33/20 A3002 RMK A01 T03340197  RH  044%=      5-min Rain = 0
KAHS 171732Z 19014KT 34/19 A3002 RMK A01 T03380194  RH  043%=      5-min Rain = 0
KAHS 171733Z 18012KT 34/19 A3002 RMK A01 T03370191  RH  042%=      5-min Rain = 0
KAHS 171734Z 18014KT 34/19 A3002 RMK A01 T03360192  RH  043%=      5-min Rain = 0
KAHS 171735Z 18009KT 34/20 A3002 RMK A01 T03370196  RH  043%=      5-min Rain = 0
KAHS 171736Z 19011KT 34/20 A3002 RMK A01 T03410195  RH  042%=      5-min Rain = 0
KAHS 171737Z 19011KT 34/19 A3002 RMK A01 T03380191  RH  042%=      5-min Rain = 0
KAHS 171738Z 22010G15KT 34/19 A3002 RMK A01 T03350193  RH  043%=      5-min Rain = 0
KAHS 171739Z 21013KT 34/19 A3002 RMK A01 T03370192  RH  042%=      5-min Rain = 0
KAHS 171740Z 22015KT 34/19 A3001 RMK A01 T03350188  RH  042%=      5-min Rain = 0
KAHS 171741Z 21013KT 33/19 A3001 RMK A01 T03340190  RH  043%=      5-min Rain = 0
KAHS 171742Z 21011KT 33/19 A3002 RMK A01 T03330191  RH  043%=      5-min Rain = 0
KAHS 171743Z 20010KT 34/19 A3001 RMK A01 T03370194  RH  043%=      5-min Rain = 0
KAHS 171744Z 16011G16KT 34/19 A3002 RMK A01 T03400194  RH  042%=      5-min Rain = 0
KAHS 171745Z 19012KT 34/19 A3002 RMK A01 T03440193  RH  041%=      5-min Rain = 0
KAHS 171746Z 19014KT 34/19 A3002 RMK A01 T03430190  RH  040%=      5-min Rain = 0
KAHS 171747Z 20011KT 34/19 A3002 RMK A01 T03410191  RH  041%=      5-min Rain = 0
KAHS 171748Z 20011KT 34/19 A3002 RMK A01 T03400188  RH  041%=      5-min Rain = 0
KAHS 171749Z 19009KT 34/19 A3002 RMK A01 T03360188  RH  042%=      5-min Rain = 0
KAHS 171750Z 20008KT 34/19 A3002 RMK A01 T03350188  RH  042%=      5-min Rain = 0
KAHS 171751Z 20011KT 34/19 A3001 RMK A01 T03360190  RH  042%=      5-min Rain = 0
KAHS 171752Z 20011G16KT 34/19 A3001 RMK A01 T03380190  RH  042%=      5-min Rain = 0
KAHS 171753Z 20013G18KT 34/19 A3001 RMK A01 T03380189  RH  041%=      5-min Rain = 0
KAHS 171754Z 17010KT 34/19 A3001 RMK A01 T03400192  RH  042%=      5-min Rain = 0
KAHS 171755Z 16010KT 34/19 A3001 RMK A01 T03410192  RH  042%=      5-min Rain = 0
KAHS 171756Z 17010KT 34/19 A3001 RMK A01 T03420190  RH  041%=      5-min Rain = 0
KAHS 171757Z 19012KT 34/19 A3001 RMK A01 T03410191  RH  041%=      5-min Rain = 0
KAHS 171758Z 18010KT 34/19 A3001 RMK A01 T03410188  RH  040%=      5-min Rain = 0
KAHS 171759Z 20007KT 34/19 A3001 RMK A01 T03410188  RH  040%=      5-min Rain = 0
KAHS 171800Z 20009KT 34/19 A3001 RMK A01 T03440189  RH  040%=      5-min Rain = 0
KAHS 171801Z 18011KT 35/19 A3001 RMK A01 T03460191  RH  040%=      5-min Rain = 0
KAHS 171802Z 19011KT 35/19 A3001 RMK A01 T03460190  RH  040%=      5-min Rain = 0
KAHS 171803Z 20010KT 34/19 A3001 RMK A01 T03420191  RH  041%=      5-min Rain = 0
KAHS 171804Z 18010KT 34/19 A3001 RMK A01 T03440193  RH  041%=      5-min Rain = 0
KAHS 171805Z 17011KT 35/19 A3001 RMK A01 T03470191  RH  040%=      5-min Rain = 0
KAHS 171806Z 18010KT 35/19 A3001 RMK A01 T03460191  RH  040%=      5-min Rain = 0
KAHS 171807Z 18015KT 35/19 A3001 RMK A01 T03480191  RH  040%=      5-min Rain = 0
KAHS 171808Z 17015KT 35/19 A3001 RMK A01 T03450188  RH  039%=      5-min Rain = 0
KAHS 171809Z 17014KT 34/19 A3001 RMK A01 T03430186  RH  040%=      5-min Rain = 0
KAHS 171810Z 17014KT 34/19 A3001 RMK A01 T03440186  RH  039%=      5-min Rain = 0
KAHS 171811Z 18013KT 34/19 A3001 RMK A01 T03430187  RH  040%=      5-min Rain = 0
KAHS 171812Z 19011KT 34/19 A3001 RMK A01 T03430185  RH  039%=      5-min Rain = 0
KAHS 171813Z 19009KT 34/19 A3001 RMK A01 T03420185  RH  040%=      5-min Rain = 0
KAHS 171814Z 18008KT 34/19 A3001 RMK A01 T03430187  RH  040%=      5-min Rain = 0
KAHS 171815Z 17009G14KT 34/19 A3001 RMK A01 T03440185  RH  039%=      5-min Rain = 0
KAHS 171816Z 17012KT 34/18 A3001 RMK A01 T03430184  RH  039%=      5-min Rain = 0
KAHS 171817Z 19010G15KT 34/19 A3001 RMK A01 T03440187  RH  040%=      5-min Rain = 0
KAHS 171818Z 20011G16KT 35/19 A3001 RMK A01 T03460188  RH  039%=      5-min Rain = 0
KAHS 171819Z 19009KT 35/19 A3001 RMK A01 T03500187  RH  038%=      5-min Rain = 0
KAHS 171820Z 18013KT 35/18 A3001 RMK A01 T03510184  RH  037%=      5-min Rain = 0
KAHS 171821Z 19012KT 35/19 A3001 RMK A01 T03510185  RH  038%=      5-min Rain = 0
KAHS 171822Z 18012G18KT 35/19 A3001 RMK A01 T03490185  RH  038%=      5-min Rain = 0
KAHS 171823Z 19012KT 35/19 A3001 RMK A01 T03490186  RH  038%=      5-min Rain = 0
KAHS 171824Z 19013KT 35/18 A3001 RMK A01 T03480184  RH  038%=      5-min Rain = 0
KAHS 171825Z 20011KT 35/19 A3001 RMK A01 T03480185  RH  038%=      5-min Rain = 0
KAHS 171826Z 20013KT 35/19 A3001 RMK A01 T03470186  RH  039%=      5-min Rain = 0
KAHS 171827Z 19012G17KT 35/18 A3001 RMK A01 T03460183  RH  038%=      5-min Rain = 0
KAHS 171828Z 19013KT 35/18 A3001 RMK A01 T03480180  RH  037%=      5-min Rain = 0
KAHS 171829Z 21012KT 35/18 A3001 RMK A01 T03490178  RH  036%=      5-min Rain = 0
KAHS 171830Z 19012KT 35/18 A3001 RMK A01 T03480181  RH  037%=      5-min Rain = 0
KAHS 171831Z 19014G20KT 35/18 A3001 RMK A01 T03510182  RH  037%=      5-min Rain = 0
KAHS 171832Z 18015G20KT 35/18 A3001 RMK A01 T03500178  RH  036%=      5-min Rain = 0
KAHS 171833Z 16012KT 35/18 A3001 RMK A01 T03510180  RH  036%=      5-min Rain = 0
KAHS 171834Z 18012KT 35/18 A3001 RMK A01 T03530180  RH  036%=      5-min Rain = 0
KAHS 171835Z 18012KT 35/18 A3001 RMK A01 T03490179  RH  037%=      5-min Rain = 0
KAHS 171836Z 19013KT 35/19 A3001 RMK A01 T03470186  RH  039%=      5-min Rain = 0
KAHS 171837Z 18011KT 35/19 A30 RMK A01 T03470186  RH  039%=      5-min Rain = 0
KAHS 171838Z 19013KT 35/19 A30 RMK A01 T03480186  RH  039%=      5-min Rain = 0
KAHS 171839Z 21011KT 35/19 A30 RMK A01 T03480185  RH  038%=      5-min Rain = 0
KAHS 171840Z 21011KT 35/19 A30 RMK A01 T03480187  RH  039%=      5-min Rain = 0
KAHS 171841Z 18010KT 35/19 A30 RMK A01 T03520191  RH  039%=      5-min Rain = 0
KAHS 171842Z 17013KT 35/19 A30 RMK A01 T03510186  RH  038%=      5-min Rain = 0
KAHS 171843Z 16011KT 34/18 A30 RMK A01 T03440183  RH  039%=      5-min Rain = 0
KAHS 171844Z 16010KT 34/19 A30 RMK A01 T03430186  RH  040%=      5-min Rain = 0
KAHS 171845Z 18011KT 34/18 A30 RMK A01 T03440184  RH  039%=      5-min Rain = 0
KAHS 171846Z 16014G20KT 35/18 A30 RMK A01 T03470183  RH  038%=      5-min Rain = 0
KAHS 171847Z 17015KT 35/18 A30 RMK A01 T03510177  RH  036%=      5-min Rain = 0
KAHS 171848Z 18012KT 35/18 A30 RMK A01 T03510179  RH  036%=      5-min Rain = 0
KAHS 171849Z 18012KT 35/18 A30 RMK A01 T03520182  RH  037%=      5-min Rain = 0
KAHS 171850Z 18009KT 35/18 A30 RMK A01 T03510184  RH  037%=      5-min Rain = 0
KAHS 171851Z 18009KT 36/19 A30 RMK A01 T03550185  RH  037%=      5-min Rain = 0
KAHS 171852Z 20006KT 35/18 A30 RMK A01 T03540182  RH  036%=      5-min Rain = 0
KAHS 171853Z 18010KT 36/18 A2999 RMK A01 T03560184  RH  036%=      5-min Rain = 0
KAHS 171854Z 19008KT 36/19 A2999 RMK A01 T03590187  RH  037%=      5-min Rain = 0
KAHS 171855Z 16009KT 36/19 A30 RMK A01 T03630187  RH  036%=      5-min Rain = 0
KAHS 171856Z 15014G20KT 36/18 A2999 RMK A01 T03610181  RH  035%=      5-min Rain = 0
KAHS 171857Z 17015KT 36/18 A2999 RMK A01 T03600184  RH  036%=      5-min Rain = 0
KAHS 171858Z 17013KT 36/19 A2999 RMK A01 T03580187  RH  037%=      5-min Rain = 0
KAHS 171859Z 15012KT 36/19 A2999 RMK A01 T03590186  RH  036%=      5-min Rain = 0
KAHS 171900Z 16014KT 36/19 A2999 RMK A01 T03590187  RH  036%=      5-min Rain = 0
KAHS 171901Z 15014KT 36/19 A2999 RMK A01 T03570188  RH  037%=      5-min Rain = 0
KAHS 171902Z 15009G14KT 35/19 A2999 RMK A01 T03540187  RH  038%=      5-min Rain = 0
KAHS 171903Z 17009G14KT 36/19 A2999 RMK A01 T03570188  RH  037%=      5-min Rain = 0
KAHS 171904Z 18010KT 36/19 A2999 RMK A01 T03560186  RH  037%=      5-min Rain = 0
KAHS 171905Z 19010KT 35/19 A2999 RMK A01 T03510185  RH  038%=      5-min Rain = 0
KAHS 171906Z 19013KT 35/19 A2999 RMK A01 T03540187  RH  037%=      5-min Rain = 0
KAHS 171907Z 19012G17KT 36/19 A2999 RMK A01 T03600188  RH  036%=      5-min Rain = 0
KAHS 171908Z 19016KT 36/18 A2999 RMK A01 T03610182  RH  035%=      5-min Rain = 0
KAHS 171909Z 19013KT 36/18 A2999 RMK A01 T03560182  RH  036%=      5-min Rain = 0
KAHS 171910Z 19012G17KT 36/18 A2999 RMK A01 T03580184  RH  036%=      5-min Rain = 0
KAHS 171911Z 20010KT 36/18 A2999 RMK A01 T03570182  RH  036%=      5-min Rain = 0
KAHS 171912Z 19009KT 36/18 A2999 RMK A01 T03550184  RH  037%=      5-min Rain = 0
KAHS 171913Z 20009KT 36/19 A2999 RMK A01 T03560185  RH  037%=      5-min Rain = 0
KAHS 171914Z 20013KT 35/18 A2999 RMK A01 T03530184  RH  037%=      5-min Rain = 0
KAHS 171915Z 20013KT 35/18 A2999 RMK A01 T03510184  RH  037%=      5-min Rain = 0
KAHS 171916Z 20013KT 35/18 A2999 RMK A01 T03510183  RH  037%=      5-min Rain = 0
KAHS 171917Z 19013G18KT 35/19 A2999 RMK A01 T03500185  RH  038%=      5-min Rain = 0
KAHS 171918Z 20013G18KT 35/19 A2999 RMK A01 T03520187  RH  038%=      5-min Rain = 0
KAHS 171919Z 19014KT 36/19 A2998 RMK A01 T03560185  RH  037%=      5-min Rain = 0
KAHS 171920Z 20010KT 36/19 A2998 RMK A01 T03550185  RH  037%=      5-min Rain = 0
KAHS 171921Z 18014KT 36/19 A2998 RMK A01 T03550187  RH  037%=      5-min Rain = 0
KAHS 171922Z 20011G17KT 36/18 A2998 RMK A01 T03550184  RH  037%=      5-min Rain = 0
KAHS 171923Z 19009KT 36/18 A2998 RMK A01 T03550182  RH  036%=      5-min Rain = 0
KAHS 171924Z 18009KT 36/19 A2998 RMK A01 T03580185  RH  036%=      5-min Rain = 0
KAHS 171925Z 18008KT 36/18 A2998 RMK A01 T03570183  RH  036%=      5-min Rain = 0
KAHS 171926Z 17007KT 36/19 A2998 RMK A01 T03580186  RH  036%=      5-min Rain = 0
KAHS 171927Z 17013KT 36/19 A2998 RMK A01 T03590185  RH  036%=      5-min Rain = 0
KAHS 171928Z 16014KT 36/18 A2998 RMK A01 T03560181  RH  036%=      5-min Rain = 0
KAHS 171929Z 17012KT 35/18 A2998 RMK A01 T03540182  RH  036%=      5-min Rain = 0
KAHS 171930Z 18015KT 36/18 A2998 RMK A01 T03550184  RH  036%=      5-min Rain = 0
KAHS 171931Z 17013KT 36/19 A2998 RMK A01 T03560186  RH  037%=      5-min Rain = 0
KAHS 171932Z 18014KT 36/19 A2998 RMK A01 T03590185  RH  036%=      5-min Rain = 0
KAHS 171933Z 20009KT 36/18 A2998 RMK A01 T03570184  RH  036%=      5-min Rain = 0
KAHS 171934Z 20007KT 35/18 A2998 RMK A01 T03530182  RH  037%=      5-min Rain = 0
KAHS 171935Z 18008G13KT 35/19 A2998 RMK A01 T03530185  RH  037%=      5-min Rain = 0
KAHS 171936Z 19010KT 36/19 A2998 RMK A01 T03570186  RH  037%=      5-min Rain = 0
KAHS 171937Z 20012KT 36/18 A2998 RMK A01 T03630184  RH  035%=      5-min Rain = 0
KAHS 171938Z 18013G19KT 37/18 A2998 RMK A01 T03660184  RH  034%=      5-min Rain = 0
KAHS 171939Z 19014KT 37/18 A2998 RMK A01 T03650179  RH  034%=      5-min Rain = 0
KAHS 171940Z 20012G19KT 36/18 A2997 RMK A01 T03610178  RH  034%=      5-min Rain = 0
KAHS 171941Z 18014KT 36/18 A2998 RMK A01 T03640179  RH  034%=      5-min Rain = 0
KAHS 171942Z 18015KT 36/18 A2998 RMK A01 T03640179  RH  034%=      5-min Rain = 0
KAHS 171943Z 19011G16KT 36/18 A2998 RMK A01 T03620181  RH  035%=      5-min Rain = 0
KAHS 171944Z 19010KT 36/18 A2998 RMK A01 T03610183  RH  035%=      5-min Rain = 0
KAHS 171945Z 19008KT 36/19 A2998 RMK A01 T03600185  RH  036%=      5-min Rain = 0
KAHS 171946Z 16014KT 36/19 A2998 RMK A01 T03620186  RH  036%=      5-min Rain = 0
KAHS 171947Z 18012KT 36/18 A2997 RMK A01 T03620184  RH  035%=      5-min Rain = 0
KAHS 171948Z 16009KT 36/18 A2997 RMK A01 T03590184  RH  036%=      5-min Rain = 0
KAHS 171949Z 17008KT 36/18 A2997 RMK A01 T03600183  RH  035%=      5-min Rain = 0
KAHS 171950Z 18010KT 36/18 A2997 RMK A01 T03620184  RH  035%=      5-min Rain = 0
KAHS 171951Z 18012KT 36/18 A2997 RMK A01 T03630184  RH  035%=      5-min Rain = 0
KAHS 171952Z 18013KT 36/18 A2997 RMK A01 T03610183  RH  035%=      5-min Rain = 0
KAHS 171953Z 18011KT 36/18 A2997 RMK A01 T03590183  RH  036%=      5-min Rain = 0
KAHS 171954Z 18012KT 36/19 A2997 RMK A01 T03620185  RH  035%=      5-min Rain = 0
KAHS 171955Z 18016G21KT 36/18 A2997 RMK A01 T03610184  RH  035%=      5-min Rain = 0
KAHS 171956Z 17014G19KT 36/19 A2997 RMK A01 T03600186  RH  036%=      5-min Rain = 0
KAHS 171957Z 17013KT 36/18 A2997 RMK A01 T03590184  RH  036%=      5-min Rain = 0
KAHS 171958Z 16013KT 36/18 A2997 RMK A01 T03580183  RH  036%=      5-min Rain = 0
KAHS 171959Z 17011KT 36/19 A2997 RMK A01 T03590185  RH  036%=      5-min Rain = 0
KAHS 172000Z 16010KT 36/19 A2997 RMK A01 T03600185  RH  036%=      5-min Rain = 0
KAHS 172001Z 16013KT 36/18 A2997 RMK A01 T03600184  RH  035%=      5-min Rain = 0
KAHS 172002Z 16013KT 36/18 A2997 RMK A01 T03570182  RH  036%=      5-min Rain = 0
KAHS 172003Z 14011KT 36/18 A2997 RMK A01 T03550181  RH  036%=      5-min Rain = 0
KAHS 172004Z 15012KT 35/18 A2997 RMK A01 T03520181  RH  036%=      5-min Rain = 0
KAHS 172005Z 18015KT 35/19 A2996 RMK A01 T03530185  RH  037%=      5-min Rain = 0
KAHS 172006Z 17015KT 36/19 A2997 RMK A01 T03550186  RH  037%=      5-min Rain = 0
KAHS 172007Z 17013KT 36/18 A2997 RMK A01 T03560182  RH  036%=      5-min Rain = 0
KAHS 172008Z 19014KT 36/18 A2997 RMK A01 T03570175  RH  034%=      5-min Rain = 0
KAHS 172009Z 20011KT 36/17 A2996 RMK A01 T03550172  RH  034%=      5-min Rain = 0
KAHS 172010Z 20013KT 36/17 A2996 RMK A01 T03580172  RH  033%=      5-min Rain = 0
KAHS 172011Z 20013KT 36/18 A2996 RMK A01 T03610175  RH  033%=      5-min Rain = 0
KAHS 172012Z 20013KT 36/18 A2996 RMK A01 T03610177  RH  034%=      5-min Rain = 0
KAHS 172013Z 20011KT 36/18 A2996 RMK A01 T03610181  RH  035%=      5-min Rain = 0
KAHS 172014Z 19010KT 36/18 A2996 RMK A01 T03610182  RH  035%=      5-min Rain = 0
KAHS 172015Z 18011G17KT 36/18 A2996 RMK A01 T03570183  RH  036%=      5-min Rain = 0
KAHS 172016Z 18012KT 35/18 A2996 RMK A01 T03520182  RH  037%=      5-min Rain = 0
KAHS 172017Z 17011G17KT 35/18 A2996 RMK A01 T03490182  RH  037%=      5-min Rain = 0
KAHS 172018Z 16009KT 35/18 A2996 RMK A01 T03480183  RH  038%=      5-min Rain = 0
KAHS 172019Z 15011G23KT 35/18 A2996 RMK A01 T03520183  RH  037%=      5-min Rain = 0
KAHS 172020Z 18015G25KT 36/18 A2996 RMK A01 T03570184  RH  036%=      5-min Rain = 0
KAHS 172021Z 19012KT 36/18 A2996 RMK A01 T03620183  RH  035%=      5-min Rain = 0
KAHS 172022Z 18017KT 36/18 A2996 RMK A01 T03630179  RH  034%=      5-min Rain = 0
KAHS 172023Z 19014KT 36/18 A2996 RMK A01 T03600179  RH  034%=      5-min Rain = 0
KAHS 172024Z 20012KT 36/18 A2996 RMK A01 T03590178  RH  035%=      5-min Rain = 0
KAHS 172025Z 19013KT 36/18 A2996 RMK A01 T03580179  RH  035%=      5-min Rain = 0
KAHS 172026Z 18014G19KT 36/18 A2996 RMK A01 T03580179  RH  035%=      5-min Rain = 0
KAHS 172027Z 19012KT 36/18 A2996 RMK A01 T03580178  RH  035%=      5-min Rain = 0
KAHS 172028Z 18010KT 36/18 A2996 RMK A01 T03590180  RH  035%=      5-min Rain = 0
KAHS 172029Z 17006KT 36/18 A2996 RMK A01 T03590180  RH  035%=      5-min Rain = 0
KAHS 172030Z 18007KT 36/18 A2996 RMK A01 T03630182  RH  035%=      5-min Rain = 0
KAHS 172031Z 18007KT 37/18 A2996 RMK A01 T03650181  RH  034%=      5-min Rain = 0
KAHS 172032Z 20016KT 36/18 A2996 RMK A01 T03640177  RH  033%=      5-min Rain = 0
KAHS 172033Z 19012KT 36/18 A2996 RMK A01 T03590176  RH  034%=      5-min Rain = 0
KAHS 172034Z 20008KT 36/18 A2996 RMK A01 T03580175  RH  034%=      5-min Rain = 0
KAHS 172035Z 18007KT 36/18 A2996 RMK A01 T03570176  RH  034%=      5-min Rain = 0
KAHS 172036Z 22009KT 36/18 A2996 RMK A01 T03590175  RH  034%=      5-min Rain = 0
KAHS 172037Z 18012KT 36/17 A2996 RMK A01 T03610174  RH  033%=      5-min Rain = 0
KAHS 172038Z 17010KT 36/17 A2996 RMK A01 T03620171  RH  032%=      5-min Rain = 0
KAHS 172039Z 19012KT 36/17 A2996 RMK A01 T03630172  RH  032%=      5-min Rain = 0
KAHS 172040Z 20010KT 36/17 A2996 RMK A01 T03610171  RH  033%=      5-min Rain = 0
KAHS 172041Z 19008KT 36/17 A2996 RMK A01 T03600173  RH  033%=      5-min Rain = 0
KAHS 172042Z 19012G17KT 36/17 A2996 RMK A01 T03620174  RH  033%=      5-min Rain = 0
KAHS 172043Z 19011KT 36/17 A2996 RMK A01 T03620172  RH  033%=      5-min Rain = 0
KAHS 172044Z 19010KT 36/17 A2996 RMK A01 T03610173  RH  033%=      5-min Rain = 0
KAHS 172045Z 17009KT 36/18 A2995 RMK A01 T03610175  RH  033%=      5-min Rain = 0
KAHS 172046Z 17010KT 36/17 A2995 RMK A01 T03610174  RH  033%=      5-min Rain = 0
KAHS 172047Z 16010KT 36/18 A2995 RMK A01 T03600176  RH  034%=      5-min Rain = 0
KAHS 172048Z 16014KT 36/18 A2995 RMK A01 T03610176  RH  034%=      5-min Rain = 0
KAHS 172049Z 16012KT 36/18 A2995 RMK A01 T03610176  RH  034%=      5-min Rain = 0
KAHS 172050Z 17014KT 36/18 A2995 RMK A01 T03620176  RH  033%=      5-min Rain = 0
KAHS 172051Z 17011KT 36/17 A2995 RMK A01 T03610170  RH  032%=      5-min Rain = 0
KAHS 172052Z 18013KT 36/17 A2995 RMK A01 T03610168  RH  032%=      5-min Rain = 0
KAHS 172053Z 19015KT 36/17 A2995 RMK A01 T03600169  RH  032%=      5-min Rain = 0
KAHS 172054Z 19010KT 36/17 A2995 RMK A01 T03590171  RH  033%=      5-min Rain = 0
KAHS 172055Z 20011KT 36/17 A2995 RMK A01 T03590170  RH  033%=      5-min Rain = 0
KAHS 172056Z 19007KT 36/17 A2995 RMK A01 T03580170  RH  033%=      5-min Rain = 0
KAHS 172057Z 19010KT 36/17 A2995 RMK A01 T03610172  RH  033%=      5-min Rain = 0
KAHS 172058Z 18010KT 36/17 A2995 RMK A01 T03600173  RH  033%=      5-min Rain = 0
KAHS 172059Z 17010KT 36/18 A2995 RMK A01 T03610178  RH  034%=      5-min Rain = 0
KAHS 172100Z 15011G19KT 36/18 A2994 RMK A01 T03640181  RH  034%=      5-min Rain = 0
KAHS 172101Z 17013KT 37/18 A2994 RMK A01 T03660179  RH  033%=      5-min Rain = 0
KAHS 172102Z 19012G18KT 37/18 A2994 RMK A01 T03700177  RH  032%=      5-min Rain = 0
KAHS 172103Z 19013KT 37/17 A2994 RMK A01 T03690171  RH  031%=      5-min Rain = 0
KAHS 172104Z 19011KT 36/17 A2994 RMK A01 T03640168  RH  032%=      5-min Rain = 0
KAHS 172105Z 18011KT 36/17 A2994 RMK A01 T03610170  RH  032%=      5-min Rain = 0
KAHS 172106Z 15012KT 36/18 A2994 RMK A01 T03630175  RH  033%=      5-min Rain = 0
KAHS 172107Z 15010KT 36/18 A2994 RMK A01 T03630175  RH  033%=      5-min Rain = 0
KAHS 172108Z 16009G14KT 36/18 A2994 RMK A01 T03620176  RH  033%=      5-min Rain = 0
KAHS 172109Z 15014KT 36/18 A2994 RMK A01 T03640177  RH  033%=      5-min Rain = 0
KAHS 172110Z 18011KT 37/18 A2994 RMK A01 T03670176  RH  032%=      5-min Rain = 0
KAHS 172111Z 16014KT 37/17 A2994 RMK A01 T03680174  RH  032%=      5-min Rain = 0
KAHS 172112Z 17012KT 36/17 A2994 RMK A01 T03640172  RH  032%=      5-min Rain = 0
KAHS 172113Z 17008KT 36/17 A2994 RMK A01 T03620173  RH  033%=      5-min Rain = 0
KAHS 172114Z 16008KT 36/17 A2994 RMK A01 T03640172  RH  032%=      5-min Rain = 0
KAHS 172115Z 15009KT 37/17 A2994 RMK A01 T03670173  RH  032%=      5-min Rain = 0
KAHS 172116Z 17014KT 37/17 A2994 RMK A01 T03680173  RH  032%=      5-min Rain = 0
KAHS 172117Z 17013KT 37/17 A2994 RMK A01 T03660173  RH  032%=      5-min Rain = 0
KAHS 172118Z 19014KT 37/17 A2994 RMK A01 T03650165  RH  031%=      5-min Rain = 0
KAHS 172119Z 18010G15KT 36/16 A2994 RMK A01 T03640163  RH  031%=      5-min Rain = 0
KAHS 172120Z 17008KT 37/17 A2994 RMK A01 T03670172  RH  032%=      5-min Rain = 0
KAHS 172121Z 19010KT 37/17 A2994 RMK A01 T03670168  RH  031%=      5-min Rain = 0
KAHS 172122Z 18011KT 37/16 A2994 RMK A01 T03690163  RH  030%=      5-min Rain = 0
KAHS 172123Z 19012KT 37/16 A2994 RMK A01 T03710162  RH  029%=      5-min Rain = 0
KAHS 172124Z 19012KT 37/16 A2994 RMK A01 T03700162  RH  029%=      5-min Rain = 0
KAHS 172125Z 18014G19KT 37/16 A2994 RMK A01 T03680161  RH  030%=      5-min Rain = 0
KAHS 172126Z 19014KT 37/16 A2994 RMK A01 T03660160  RH  030%=      5-min Rain = 0
KAHS 172127Z 19013KT 37/16 A2994 RMK A01 T03650161  RH  030%=      5-min Rain = 0
KAHS 172128Z 20011KT 36/17 A2994 RMK A01 T03630167  RH  031%=      5-min Rain = 0
KAHS 172129Z 21011KT 36/17 A2994 RMK A01 T03620167  RH  031%=      5-min Rain = 0
KAHS 172130Z 19011KT 36/17 A2993 RMK A01 T03620168  RH  032%=      5-min Rain = 0
KAHS 172131Z 20010KT 36/17 A2993 RMK A01 T03610168  RH  032%=      5-min Rain = 0
KAHS 172132Z 18009KT 36/17 A2993 RMK A01 T03640170  RH  032%=      5-min Rain = 0
KAHS 172133Z 17014G20KT 37/17 A2993 RMK A01 T03680168  RH  031%=      5-min Rain = 0
KAHS 172134Z 20014KT 37/16 A2993 RMK A01 T03670164  RH  030%=      5-min Rain = 0
KAHS 172135Z 19015KT 37/16 A2993 RMK A01 T03670162  RH  030%=      5-min Rain = 0
KAHS 172136Z 19011KT 37/16 A2993 RMK A01 T03650161  RH  030%=      5-min Rain = 0
KAHS 172137Z 19011KT 37/16 A2993 RMK A01 T03650163  RH  030%=      5-min Rain = 0
KAHS 172138Z 20012KT 37/16 A2993 RMK A01 T03650163  RH  030%=      5-min Rain = 0
KAHS 172139Z 18010KT 36/16 A2993 RMK A01 T03630160  RH  030%=      5-min Rain = 0
KAHS 172140Z 16010KT 36/16 A2993 RMK A01 T03630161  RH  030%=      5-min Rain = 0
KAHS 172141Z 18008KT 37/16 A2993 RMK A01 T03650164  RH  031%=      5-min Rain = 0
KAHS 172142Z 21014G19KT 37/16 A2993 RMK A01 T03680161  RH  029%=      5-min Rain = 0
KAHS 172143Z 20014KT 37/15 A2993 RMK A01 T03650149  RH  028%=      5-min Rain = 0
KAHS 172144Z 20012KT 36/15 A2993 RMK A01 T03630151  RH  028%=      5-min Rain = 0
KAHS 172145Z 18009KT 36/15 A2993 RMK A01 T03620152  RH  029%=      5-min Rain = 0
KAHS 172146Z 18012G17KT 36/16 A2993 RMK A01 T03640156  RH  029%=      5-min Rain = 0
KAHS 172147Z 18014KT 37/16 A2993 RMK A01 T03660161  RH  030%=      5-min Rain = 0
KAHS 172148Z 17012KT 37/16 A2993 RMK A01 T03650162  RH  030%=      5-min Rain = 0
KAHS 172149Z 17009KT 36/16 A2993 RMK A01 T03640163  RH  031%=      5-min Rain = 0
KAHS 172150Z 18011G17KT 37/16 A2993 RMK A01 T03650163  RH  030%=      5-min Rain = 0
KAHS 172151Z 18014G19KT 37/16 A2993 RMK A01 T03650162  RH  030%=      5-min Rain = 0
KAHS 172152Z 18012G18KT 37/16 A2993 RMK A01 T03650162  RH  030%=      5-min Rain = 0
KAHS 172153Z 18010KT 37/16 A2993 RMK A01 T03650164  RH  031%=      5-min Rain = 0
KAHS 172154Z 18013G18KT 37/17 A2993 RMK A01 T03670165  RH  030%=      5-min Rain = 0
KAHS 172155Z 17016KT 37/16 A2993 RMK A01 T03680163  RH  030%=      5-min Rain = 0
KAHS 172156Z 16012KT 37/16 A2993 RMK A01 T03660161  RH  030%=      5-min Rain = 0
KAHS 172157Z 15013KT 37/16 A2993 RMK A01 T03650164  RH  030%=      5-min Rain = 0
KAHS 172158Z 16009KT 36/16 A2992 RMK A01 T03630164  RH  031%=      5-min Rain = 0
KAHS 172159Z 17013G19KT 36/17 A2992 RMK A01 T03630168  RH  032%=      5-min Rain = 0
KAHS 172200Z 16015KT 36/17 A2992 RMK A01 T03640168  RH  031%=      5-min Rain = 0
KAHS 172201Z 15015KT 37/17 A2992 RMK A01 T03660166  RH  031%=      5-min Rain = 0
KAHS 172202Z 14012KT 37/17 A2992 RMK A01 T03670166  RH  031%=      5-min Rain = 0
KAHS 172203Z 15014KT 37/17 A2992 RMK A01 T03650165  RH  031%=      5-min Rain = 0
KAHS 172204Z 14013KT 36/17 A2992 RMK A01 T03640166  RH  031%=      5-min Rain = 0
KAHS 172205Z 14010KT 36/17 A2992 RMK A01 T03640166  RH  031%=      5-min Rain = 0
KAHS 172206Z 16014KT 37/17 A2992 RMK A01 T03650167  RH  031%=      5-min Rain = 0
KAHS 172207Z 18015KT 37/17 A2992 RMK A01 T03650166  RH  031%=      5-min Rain = 0
KAHS 172208Z 18008KT 36/17 A2992 RMK A01 T03630166  RH  031%=      5-min Rain = 0
KAHS 172209Z 17011KT 36/17 A2992 RMK A01 T03620166  RH  031%=      5-min Rain = 0
KAHS 172210Z 16010G18KT 36/17 A2992 RMK A01 T03630169  RH  032%=      5-min Rain = 0
KAHS 172211Z 15015KT 37/17 A2992 RMK A01 T03650168  RH  031%=      5-min Rain = 0
KAHS 172212Z 15014KT 36/17 A2992 RMK A01 T03640166  RH  031%=      5-min Rain = 0
KAHS 172213Z 16013KT 36/16 A2992 RMK A01 T03640163  RH  031%=      5-min Rain = 0
KAHS 172214Z 15014KT 37/17 A2992 RMK A01 T03660166  RH  031%=      5-min Rain = 0
KAHS 172215Z 16015G21KT 37/16 A2992 RMK A01 T03670163  RH  030%=      5-min Rain = 0
KAHS 172216Z 17015KT 37/16 A2992 RMK A01 T03660161  RH  030%=      5-min Rain = 0
KAHS 172217Z 18018KT 36/16 A2992 RMK A01 T03640158  RH  030%=      5-min Rain = 0
KAHS 172218Z 17013KT 36/16 A2992 RMK A01 T03640160  RH  030%=      5-min Rain = 0
KAHS 172219Z 15013KT 36/16 A2992 RMK A01 T03640159  RH  030%=      5-min Rain = 0
KAHS 172220Z 16012KT 37/16 A2992 RMK A01 T03650162  RH  030%=      5-min Rain = 0
KAHS 172221Z 16013KT 37/16 A2992 RMK A01 T03660163  RH  030%=      5-min Rain = 0
KAHS 172222Z 16012G17KT 37/16 A2992 RMK A01 T03660161  RH  030%=      5-min Rain = 0
KAHS 172223Z 17015KT 37/16 A2992 RMK A01 T03670159  RH  029%=      5-min Rain = 0
KAHS 172224Z 19010KT 37/16 A2992 RMK A01 T03670159  RH  029%=      5-min Rain = 0
KAHS 172225Z 18011KT 37/16 A2992 RMK A01 T03680159  RH  029%=      5-min Rain = 0
KAHS 172226Z 18013G18KT 37/16 A2992 RMK A01 T03700161  RH  029%=      5-min Rain = 0
KAHS 172227Z 19013KT 37/16 A2992 RMK A01 T03690160  RH  029%=      5-min Rain = 0
KAHS 172228Z 18013KT 37/16 A2992 RMK A01 T03670160  RH  029%=      5-min Rain = 0
KAHS 172229Z 17015KT 37/16 A2992 RMK A01 T03650157  RH  029%=      5-min Rain = 0
KAHS 172230Z 15010KT 36/16 A2992 RMK A01 T03630156  RH  029%=      5-min Rain = 0
KAHS 172231Z 15010KT 37/16 A2992 RMK A01 T03650157  RH  029%=      5-min Rain = 0
KAHS 172232Z 17012G20KT 37/16 A2992 RMK A01 T03670157  RH  029%=      5-min Rain = 0
KAHS 172233Z 17013G18KT 37/15 A2992 RMK A01 T03670150  RH  027%=      5-min Rain = 0
KAHS 172234Z 17010G15KT 37/15 A2992 RMK A01 T03670148  RH  027%=      5-min Rain = 0
KAHS 172235Z 16013KT 37/15 A2992 RMK A01 T03690148  RH  027%=      5-min Rain = 0
KAHS 172236Z 15014KT 37/15 A2992 RMK A01 T03690147  RH  027%=      5-min Rain = 0
KAHS 172237Z 17015KT 37/15 A2992 RMK A01 T03680148  RH  027%=      5-min Rain = 0
KAHS 172238Z 17015G20KT 37/15 A2992 RMK A01 T03670149  RH  027%=      5-min Rain = 0
KAHS 172239Z 17014KT 36/15 A2992 RMK A01 T03640149  RH  028%=      5-min Rain = 0
KAHS 172240Z 17010KT 36/15 A2992 RMK A01 T03640150  RH  028%=      5-min Rain = 0
KAHS 172241Z 17016G21KT 37/15 A2991 RMK A01 T03660151  RH  028%=      5-min Rain = 0
KAHS 172242Z 16014G20KT 36/15 A2991 RMK A01 T03640151  RH  028%=      5-min Rain = 0
KAHS 172243Z 16015KT 37/15 A2991 RMK A01 T03650152  RH  028%=      5-min Rain = 0
KAHS 172244Z 17012KT 37/15 A2991 RMK A01 T03650152  RH  028%=      5-min Rain = 0
KAHS 172245Z 18009KT 37/15 A2991 RMK A01 T03660153  RH  028%=      5-min Rain = 0
KAHS 172246Z 16013KT 37/15 A2991 RMK A01 T03680154  RH  028%=      5-min Rain = 0
KAHS 172247Z 15010KT 37/16 A2991 RMK A01 T03680156  RH  029%=      5-min Rain = 0
KAHS 172248Z 16018KT 37/16 A2991 RMK A01 T03690155  RH  028%=      5-min Rain = 0
KAHS 172249Z 16016KT 37/15 A2991 RMK A01 T03660151  RH  028%=      5-min Rain = 0
KAHS 172250Z 16011KT 37/15 A2991 RMK A01 T03660152  RH  028%=      5-min Rain = 0
KAHS 172251Z 17014G19KT 37/15 A2991 RMK A01 T03680151  RH  028%=      5-min Rain = 0
KAHS 172252Z 18014KT 37/15 A2991 RMK A01 T03660148  RH  027%=      5-min Rain = 0
KAHS 172253Z 15013KT 36/15 A2991 RMK A01 T03640146  RH  027%=      5-min Rain = 0
KAHS 172254Z 16013KT 36/15 A2991 RMK A01 T03640145  RH  027%=      5-min Rain = 0
KAHS 172255Z 16010KT 36/15 A2991 RMK A01 T03640145  RH  027%=      5-min Rain = 0
KAHS 172256Z 17008KT 37/15 A2991 RMK A01 T03650149  RH  028%=      5-min Rain = 0
KAHS 172257Z 17010KT 37/15 A2991 RMK A01 T03660149  RH  028%=      5-min Rain = 0
KAHS 172258Z 17011KT 37/15 A2991 RMK A01 T03660151  RH  028%=      5-min Rain = 0
KAHS 172259Z 17013KT 37/15 A2991 RMK A01 T03670153  RH  028%=      5-min Rain = 0
KAHS 172300Z 16012KT 37/15 A2991 RMK A01 T03670151  RH  028%=      5-min Rain = 0
KAHS 172301Z 17014G19KT 37/15 A2991 RMK A01 T03660149  RH  028%=      5-min Rain = 0
KAHS 172302Z 18015KT 37/15 A2991 RMK A01 T03650149  RH  028%=      5-min Rain = 0
KAHS 172303Z 17012KT 36/15 A2991 RMK A01 T03640146  RH  027%=      5-min Rain = 0
KAHS 172304Z 17011G17KT 36/15 A2991 RMK A01 T03640145  RH  027%=      5-min Rain = 0
KAHS 172305Z 15010KT 37/15 A2991 RMK A01 T03660145  RH  027%=      5-min Rain = 0
KAHS 172306Z 15013KT 37/14 A2991 RMK A01 T03660143  RH  027%=      5-min Rain = 0
KAHS 172307Z 14011KT 37/14 A2991 RMK A01 T03650144  RH  027%=      5-min Rain = 0
KAHS 172308Z 15014KT 36/15 A2991 RMK A01 T03640145  RH  027%=      5-min Rain = 0
KAHS 172309Z 15013KT 36/15 A2991 RMK A01 T03640145  RH  027%=      5-min Rain = 0
KAHS 172310Z 15013KT 36/15 A2991 RMK A01 T03630145  RH  027%=      5-min Rain = 0
KAHS 172311Z 16015G20KT 36/15 A2991 RMK A01 T03630146  RH  028%=      5-min Rain = 0
KAHS 172312Z 17015G21KT 36/15 A2991 RMK A01 T03630147  RH  028%=      5-min Rain = 0
KAHS 172313Z 17015KT 37/15 A2991 RMK A01 T03650145  RH  027%=      5-min Rain = 0
KAHS 172314Z 17015KT 36/14 A2991 RMK A01 T03640136  RH  026%=      5-min Rain = 0
KAHS 172315Z 17015KT 36/13 A2991 RMK A01 T03630132  RH  025%=      5-min Rain = 0
KAHS 172316Z 18013KT 36/14 A2991 RMK A01 T03620140  RH  026%=      5-min Rain = 0
KAHS 172317Z 18009G15KT 36/15 A2991 RMK A01 T03630145  RH  027%=      5-min Rain = 0
KAHS 172318Z 18011KT 37/15 A2991 RMK A01 T03650149  RH  028%=      5-min Rain = 0
KAHS 172319Z 18011KT 36/15 A2991 RMK A01 T03640150  RH  028%=      5-min Rain = 0
KAHS 172320Z 19011G18KT 36/15 A2991 RMK A01 T03640153  RH  029%=      5-min Rain = 0
KAHS 172321Z 19013KT 36/16 A2991 RMK A01 T03630157  RH  029%=      5-min Rain = 0
KAHS 172322Z 18013G18KT 36/16 A299 RMK A01 T03630158  RH  030%=      5-min Rain = 0
KAHS 172323Z 18015KT 36/16 A299 RMK A01 T03620155  RH  029%=      5-min Rain = 0
KAHS 172324Z 18014KT 36/16 A299 RMK A01 T03610156  RH  030%=      5-min Rain = 0
KAHS 172325Z 18015G22KT 36/16 A299 RMK A01 T03610159  RH  030%=      5-min Rain = 0
KAHS 172326Z 18014KT 36/16 A2991 RMK A01 T03610159  RH  030%=      5-min Rain = 0
KAHS 172327Z 17014KT 36/16 A2991 RMK A01 T03610159  RH  030%=      5-min Rain = 0
KAHS 172328Z 18012KT 36/16 A299 RMK A01 T03600161  RH  031%=      5-min Rain = 0
KAHS 172329Z 17012KT 36/16 A299 RMK A01 T03600160  RH  031%=      5-min Rain = 0
KAHS 172330Z 16010KT 36/16 A2991 RMK A01 T03600162  RH  031%=      5-min Rain = 0
KAHS 172331Z 17013KT 36/16 A2991 RMK A01 T03610161  RH  031%=      5-min Rain = 0
KAHS 172332Z 17012KT 36/16 A299 RMK A01 T03600163  RH  031%=      5-min Rain = 0
KAHS 172333Z 15011KT 36/17 A2991 RMK A01 T03600165  RH  032%=      5-min Rain = 0
KAHS 172334Z 15012KT 36/17 A299 RMK A01 T03610167  RH  032%=      5-min Rain = 0
KAHS 172335Z 15016KT 36/17 A299 RMK A01 T03600167  RH  032%=      5-min Rain = 0
KAHS 172336Z 16015G20KT 36/17 A299 RMK A01 T03590167  RH  032%=      5-min Rain = 0
KAHS 172337Z 16014KT 36/17 A2991 RMK A01 T03580168  RH  032%=      5-min Rain = 0
KAHS 172338Z 16014KT 36/17 A299 RMK A01 T03590166  RH  032%=      5-min Rain = 0
KAHS 172339Z 16011G17KT 36/17 A2991 RMK A01 T03590166  RH  032%=      5-min Rain = 0
KAHS 172340Z 17013KT 36/16 A2991 RMK A01 T03590164  RH  032%=      5-min Rain = 0
KAHS 172341Z 16011G16KT 36/17 A299 RMK A01 T03600165  RH  032%=      5-min Rain = 0
KAHS 172342Z 16016KT 36/17 A2991 RMK A01 T03600167  RH  032%=      5-min Rain = 0
KAHS 172343Z 16015KT 36/17 A2991 RMK A01 T03590169  RH  033%=      5-min Rain = 0
KAHS 172344Z 16012KT 36/17 A2991 RMK A01 T03580170  RH  033%=      5-min Rain = 0
KAHS 172345Z 16012KT 36/17 A299 RMK A01 T03590172  RH  033%=      5-min Rain = 0
KAHS 172346Z 16011G16KT 36/17 A299 RMK A01 T03590173  RH  034%=      5-min Rain = 0
KAHS 172347Z 17012G17KT 36/18 A299 RMK A01 T03580175  RH  034%=      5-min Rain = 0
KAHS 172348Z 17014KT 36/17 A299 RMK A01 T03570174  RH  034%=      5-min Rain = 0
KAHS 172349Z 16010G16KT 36/18 A299 RMK A01 T03560175  RH  034%=      5-min Rain = 0
KAHS 172350Z 16015KT 36/18 A299 RMK A01 T03560176  RH  035%=      5-min Rain = 0
KAHS 172351Z 15012KT 35/18 A299 RMK A01 T03540176  RH  035%=      5-min Rain = 0
KAHS 172352Z 15010G17KT 35/18 A299 RMK A01 T03540179  RH  036%=      5-min Rain = 0
KAHS 172353Z 16013KT 36/18 A299 RMK A01 T03550179  RH  035%=      5-min Rain = 0
KAHS 172354Z 16015KT 35/17 A299 RMK A01 T03540174  RH  034%=      5-min Rain = 0
KAHS 172355Z 15014KT 35/17 A299 RMK A01 T03540174  RH  035%=      5-min Rain = 0
KAHS 172356Z 15011KT 35/17 A299 RMK A01 T03540174  RH  035%=      5-min Rain = 0
KAHS 172357Z 15014KT 35/18 A2991 RMK A01 T03540176  RH  035%=      5-min Rain = 0
KAHS 172358Z 15015G22KT 35/18 A299 RMK A01 T03530176  RH  035%=      5-min Rain = 0
KAHS 172359Z 15011KT 35/18 A2991 RMK A01 T03520175  RH  035%=      5-min Rain = 0
KAHS 180000Z 14009KT 35/18 A2991 RMK A01 T03510176  RH  035%=      5-min Rain = 0
KAHS 180001Z 14010KT 35/18 A299 RMK A01 T03510176  RH  036%=      5-min Rain = 0
KAHS 180002Z 15015KT 35/18 A299 RMK A01 T03510177  RH  036%=      5-min Rain = 0
KAHS 180003Z 17014KT 35/18 A2991 RMK A01 T03520176  RH  035%=      5-min Rain = 0
KAHS 180004Z 18015KT 35/17 A2991 RMK A01 T03520171  RH  034%=      5-min Rain = 0
KAHS 180005Z 17012KT 35/17 A2991 RMK A01 T03510170  RH  034%=      5-min Rain = 0
KAHS 180006Z 18012G17KT 35/17 A2991 RMK A01 T03520172  RH  035%=      5-min Rain = 0
KAHS 180007Z 18012KT 35/17 A299 RMK A01 T03520173  RH  035%=      5-min Rain = 0
KAHS 180008Z 17014KT 35/17 A2991 RMK A01 T03520173  RH  035%=      5-min Rain = 0
KAHS 180009Z 16013KT 35/17 A2991 RMK A01 T03520174  RH  035%=      5-min Rain = 0
KAHS 180010Z 17013KT 35/17 A2991 RMK A01 T03530174  RH  035%=      5-min Rain = 0
KAHS 180011Z 17014KT 35/18 A2991 RMK A01 T03510175  RH  035%=      5-min Rain = 0
KAHS 180012Z 16015KT 35/18 A2991 RMK A01 T03510176  RH  036%=      5-min Rain = 0
KAHS 180013Z 16012KT 35/18 A2991 RMK A01 T03500176  RH  036%=      5-min Rain = 0
KAHS 180014Z 17014KT 35/18 A2991 RMK A01 T03500176  RH  036%=      5-min Rain = 0
KAHS 180015Z 17014KT 35/18 A299 RMK A01 T03490175  RH  036%=      5-min Rain = 0
KAHS 180016Z 17013KT 35/18 A2991 RMK A01 T03480177  RH  036%=      5-min Rain = 0
KAHS 180017Z 15016KT 35/18 A299 RMK A01 T03480177  RH  036%=      5-min Rain = 0
KAHS 180018Z 16012KT 35/18 A299 RMK A01 T03470179  RH  037%=      5-min Rain = 0
KAHS 180019Z 15015KT 35/18 A299 RMK A01 T03470178  RH  037%=      5-min Rain = 0
KAHS 180020Z 16011G16KT 35/18 A299 RMK A01 T03470178  RH  037%=      5-min Rain = 0
KAHS 180021Z 17011KT 35/18 A2991 RMK A01 T03490179  RH  037%=      5-min Rain = 0
KAHS 180022Z 18012KT 35/18 A2991 RMK A01 T03490179  RH  037%=      5-min Rain = 0
KAHS 180023Z 18013KT 35/18 A2991 RMK A01 T03480177  RH  036%=      5-min Rain = 0
KAHS 180024Z 17012KT 35/18 A2991 RMK A01 T03470177  RH  036%=      5-min Rain = 0
KAHS 180025Z 16012KT 35/18 A2991 RMK A01 T03480176  RH  036%=      5-min Rain = 0
KAHS 180026Z 17013KT 35/18 A2991 RMK A01 T03480177  RH  036%=      5-min Rain = 0
KAHS 180027Z 17015KT 35/18 A2991 RMK A01 T03470175  RH  036%=      5-min Rain = 0
KAHS 180028Z 17013KT 35/18 A2991 RMK A01 T03460175  RH  036%=      5-min Rain = 0
KAHS 180029Z 16010KT 35/18 A2991 RMK A01 T03460176  RH  037%=      5-min Rain = 0
KAHS 180030Z 17011KT 35/18 A2991 RMK A01 T03460177  RH  037%=      5-min Rain = 0
KAHS 180031Z 15013KT 35/18 A2991 RMK A01 T03460178  RH  037%=      5-min Rain = 0
KAHS 180032Z 14012KT 35/18 A299 RMK A01 T03450180  RH  038%=      5-min Rain = 0
KAHS 180033Z 15013KT 34/18 A2991 RMK A01 T03440180  RH  038%=      5-min Rain = 0
KAHS 180034Z 16008KT 34/18 A2991 RMK A01 T03440180  RH  038%=      5-min Rain = 0
KAHS 180035Z 16011KT 35/18 A2991 RMK A01 T03450181  RH  038%=      5-min Rain = 0
KAHS 180036Z 17012G17KT 35/18 A2991 RMK A01 T03460179  RH  037%=      5-min Rain = 0
KAHS 180037Z 17011KT 35/18 A2991 RMK A01 T03450177  RH  037%=      5-min Rain = 0
KAHS 180038Z 16012KT 34/18 A2991 RMK A01 T03440179  RH  038%=      5-min Rain = 0
KAHS 180039Z 16014G19KT 34/18 A2991 RMK A01 T03440180  RH  038%=      5-min Rain = 0
KAHS 180040Z 16015KT 34/18 A2991 RMK A01 T03440178  RH  037%=      5-min Rain = 0
KAHS 180041Z 15014KT 34/18 A2991 RMK A01 T03430178  RH  038%=      5-min Rain = 0
KAHS 180042Z 16012KT 34/18 A2991 RMK A01 T03430179  RH  038%=      5-min Rain = 0
KAHS 180043Z 16011KT 34/18 A2991 RMK A01 T03420180  RH  038%=      5-min Rain = 0
KAHS 180044Z 17014KT 34/18 A2991 RMK A01 T03420178  RH  038%=      5-min Rain = 0
KAHS 180045Z 17014KT 34/18 A2991 RMK A01 T03420177  RH  038%=      5-min Rain = 0
KAHS 180046Z 16010KT 34/18 A2991 RMK A01 T03420177  RH  038%=      5-min Rain = 0
KAHS 180047Z 16011KT 34/18 A2991 RMK A01 T03420177  RH  038%=      5-min Rain = 0
KAHS 180048Z 16009KT 34/18 A2991 RMK A01 T03420178  RH  038%=      5-min Rain = 0
KAHS 180049Z 16008KT 34/18 A2991 RMK A01 T03420179  RH  038%=      5-min Rain = 0
KAHS 180050Z 17013KT 34/18 A2991 RMK A01 T03420179  RH  038%=      5-min Rain = 0
KAHS 180051Z 17013KT 34/18 A2991 RMK A01 T03410177  RH  038%=      5-min Rain = 0
KAHS 180052Z 17011G18KT 34/18 A2991 RMK A01 T03410178  RH  038%=      5-min Rain = 0
KAHS 180053Z 17014KT 34/18 A2991 RMK A01 T03400177  RH  038%=      5-min Rain = 0
KAHS 180054Z 16014G19KT 34/18 A2991 RMK A01 T03390176  RH  038%=      5-min Rain = 0
KAHS 180055Z 17015KT 34/18 A2991 RMK A01 T03390177  RH  038%=      5-min Rain = 0
KAHS 180056Z 16013KT 34/18 A2991 RMK A01 T03380176  RH  038%=      5-min Rain = 0
KAHS 180057Z 16012KT 34/18 A2991 RMK A01 T03380177  RH  038%=      5-min Rain = 0
KAHS 180058Z 16011KT 34/18 A2991 RMK A01 T03380177  RH  038%=      5-min Rain = 0
KAHS 180059Z 16009KT 34/18 A2991 RMK A01 T03390178  RH  038%=      5-min Rain = 0
KAHS 180100Z 16011G17KT 34/18 A2991 RMK A01 T03390178  RH  039%=      5-min Rain = 0
KAHS 180101Z 16014KT 34/18 A2991 RMK A01 T03380177  RH  038%=      5-min Rain = 0
KAHS 180102Z 17011KT 34/18 A2991 RMK A01 T03380177  RH  038%=      5-min Rain = 0
KAHS 180103Z 16010G17KT 34/18 A2991 RMK A01 T03380178  RH  039%=      5-min Rain = 0
KAHS 180104Z 16013KT 34/18 A2991 RMK A01 T03370178  RH  039%=      5-min Rain = 0
KAHS 180105Z 16010KT 34/18 A2991 RMK A01 T03370178  RH  039%=      5-min Rain = 0
KAHS 180106Z 16009KT 34/18 A2991 RMK A01 T03360178  RH  039%=      5-min Rain = 0
KAHS 180107Z 16013KT 34/18 A2991 RMK A01 T03360177  RH  039%=      5-min Rain = 0
KAHS 180108Z 16012KT 34/18 A2991 RMK A01 T03360176  RH  039%=      5-min Rain = 0
KAHS 180109Z 16011G16KT 34/18 A2991 RMK A01 T03360177  RH  039%=      5-min Rain = 0
KAHS 180110Z 16016KT 34/18 A2991 RMK A01 T03350175  RH  039%=      5-min Rain = 0
KAHS 180111Z 16012KT 33/17 A2991 RMK A01 T03340174  RH  039%=      5-min Rain = 0
KAHS 180112Z 15011KT 33/17 A2991 RMK A01 T03340174  RH  039%=      5-min Rain = 0
KAHS 180113Z 16013KT 33/17 A2991 RMK A01 T03340174  RH  039%=      5-min Rain = 0
KAHS 180114Z 15010KT 33/17 A2991 RMK A01 T03340174  RH  038%=      5-min Rain = 0
KAHS 180115Z 16013KT 33/17 A2991 RMK A01 T03340173  RH  038%=      5-min Rain = 0
KAHS 180116Z 16011KT 33/17 A2991 RMK A01 T03340174  RH  039%=      5-min Rain = 0
KAHS 180117Z 17009KT 33/18 A2991 RMK A01 T03340175  RH  039%=      5-min Rain = 0
KAHS 180118Z 16009KT 33/18 A2991 RMK A01 T03330176  RH  039%=      5-min Rain = 0
KAHS 180119Z 16012G17KT 33/18 A2991 RMK A01 T03320176  RH  039%=      5-min Rain = 0
KAHS 180120Z 16012KT 33/17 A2991 RMK A01 T03320173  RH  039%=      5-min Rain = 0
KAHS 180121Z 15011KT 33/17 A2991 RMK A01 T03320173  RH  039%=      5-min Rain = 0
KAHS 180122Z 16013KT 33/17 A2991 RMK A01 T03310172  RH  039%=      5-min Rain = 0
KAHS 180123Z 16010KT 33/17 A2991 RMK A01 T03310173  RH  039%=      5-min Rain = 0
KAHS 180124Z 17012KT 33/17 A2991 RMK A01 T03300172  RH  039%=      5-min Rain = 0
KAHS 180125Z 16011KT 33/17 A2991 RMK A01 T03300172  RH  039%=      5-min Rain = 0
KAHS 180126Z 16011KT 33/17 A2991 RMK A01 T03300172  RH  039%=      5-min Rain = 0
KAHS 180127Z 16010KT 33/17 A2991 RMK A01 T03300172  RH  039%=      5-min Rain = 0
KAHS 180128Z 16013KT 33/17 A2991 RMK A01 T03300170  RH  039%=      5-min Rain = 0
KAHS 180129Z 17013KT 33/17 A2991 RMK A01 T03300169  RH  038%=      5-min Rain = 0
KAHS 180130Z 17012KT 33/17 A2991 RMK A01 T03290168  RH  038%=      5-min Rain = 0
KAHS 180131Z 16012KT 33/17 A2991 RMK A01 T03290168  RH  038%=      5-min Rain = 0
KAHS 180132Z 17010KT 33/17 A2991 RMK A01 T03280168  RH  038%=      5-min Rain = 0
KAHS 180133Z 16013KT 33/17 A2991 RMK A01 T03280168  RH  038%=      5-min Rain = 0
KAHS 180134Z 16012KT 33/17 A2991 RMK A01 T03280167  RH  038%=      5-min Rain = 0
KAHS 180135Z 16009KT 33/17 A2991 RMK A01 T03280168  RH  038%=      5-min Rain = 0
KAHS 180136Z 16009KT 33/17 A2991 RMK A01 T03270169  RH  039%=      5-min Rain = 0
KAHS 180137Z 15009KT 33/17 A2991 RMK A01 T03270170  RH  039%=      5-min Rain = 0
KAHS 180138Z 16011KT 33/17 A2991 RMK A01 T03260169  RH  039%=      5-min Rain = 0
KAHS 180139Z 16009KT 33/17 A2991 RMK A01 T03260167  RH  039%=      5-min Rain = 0
KAHS 180140Z 16009KT 33/17 A2991 RMK A01 T03260168  RH  039%=      5-min Rain = 0
KAHS 180141Z 16012KT 33/17 A2991 RMK A01 T03250166  RH  038%=      5-min Rain = 0
KAHS 180142Z 17010KT 33/17 A2992 RMK A01 T03260165  RH  038%=      5-min Rain = 0
KAHS 180143Z 17013KT 33/16 A2992 RMK A01 T03260164  RH  038%=      5-min Rain = 0
KAHS 180144Z 16009KT 33/16 A2992 RMK A01 T03260164  RH  038%=      5-min Rain = 0
KAHS 180145Z 16011KT 33/17 A2992 RMK A01 T03260165  RH  038%=      5-min Rain = 0
KAHS 180146Z 16008KT 33/17 A2992 RMK A01 T03250165  RH  038%=      5-min Rain = 0
KAHS 180147Z 17011G17KT 33/16 A2992 RMK A01 T03250164  RH  038%=      5-min Rain = 0
KAHS 180148Z 16011KT 32/16 A2992 RMK A01 T03240163  RH  038%=      5-min Rain = 0
KAHS 180149Z 16010KT 32/16 A2992 RMK A01 T03240163  RH  038%=      5-min Rain = 0
KAHS 180150Z 17010KT 32/16 A2992 RMK A01 T03240163  RH  038%=      5-min Rain = 0
KAHS 180151Z 16010G16KT 32/16 A2992 RMK A01 T03240163  RH  038%=      5-min Rain = 0
KAHS 180152Z 16013KT 32/16 A2992 RMK A01 T03240161  RH  038%=      5-min Rain = 0
KAHS 180153Z 16012KT 32/16 A2992 RMK A01 T03240161  RH  038%=      5-min Rain = 0
KAHS 180154Z 16011KT 32/16 A2992 RMK A01 T03240162  RH  038%=      5-min Rain = 0
KAHS 180155Z 16009KT 32/16 A2992 RMK A01 T03240162  RH  038%=      5-min Rain = 0
KAHS 180156Z 16011KT 32/16 A2992 RMK A01 T03240162  RH  038%=      5-min Rain = 0
KAHS 180157Z 16010KT 32/16 A2992 RMK A01 T03230161  RH  038%=      5-min Rain = 0
KAHS 180158Z 16012KT 32/16 A2992 RMK A01 T03230161  RH  038%=      5-min Rain = 0
KAHS 180159Z 17010KT 32/16 A2992 RMK A01 T03230161  RH  038%=      5-min Rain = 0
KAHS 180200Z 16009KT 32/16 A2992 RMK A01 T03230161  RH  038%=      5-min Rain = 0
KAHS 180201Z 16009KT 32/16 A2992 RMK A01 T03220162  RH  038%=      5-min Rain = 0
KAHS 180202Z 16010KT 32/16 A2992 RMK A01 T03220161  RH  038%=      5-min Rain = 0
KAHS 180203Z 16010KT 32/16 A2992 RMK A01 T03220161  RH  038%=      5-min Rain = 0
KAHS 180204Z 17010KT 32/16 A2992 RMK A01 T03220161  RH  038%=      5-min Rain = 0
KAHS 180205Z 16010KT 32/16 A2992 RMK A01 T03220160  RH  038%=      5-min Rain = 0
KAHS 180206Z 16008KT 32/16 A2992 RMK A01 T03210160  RH  038%=      5-min Rain = 0
KAHS 180207Z 16009KT 32/16 A2992 RMK A01 T03210161  RH  038%=      5-min Rain = 0
KAHS 180208Z 16009KT 32/16 A2992 RMK A01 T03210161  RH  038%=      5-min Rain = 0
KAHS 180209Z 16009KT 32/16 A2992 RMK A01 T03210161  RH  038%=      5-min Rain = 0
KAHS 180210Z 16010KT 32/16 A2992 RMK A01 T03200161  RH  038%=      5-min Rain = 0
KAHS 180211Z 16009KT 32/16 A2992 RMK A01 T03200162  RH  039%=      5-min Rain = 0
KAHS 180212Z 16009KT 32/16 A2992 RMK A01 T03200161  RH  038%=      5-min Rain = 0
KAHS 180213Z 16007KT 32/16 A2992 RMK A01 T03200161  RH  039%=      5-min Rain = 0
KAHS 180214Z 16010KT 32/16 A2992 RMK A01 T03190161  RH  039%=      5-min Rain = 0
KAHS 180215Z 17010KT 32/16 A2992 RMK A01 T03190162  RH  039%=      5-min Rain = 0
KAHS 180216Z 16009KT 32/16 A2992 RMK A01 T03190162  RH  039%=      5-min Rain = 0
KAHS 180217Z 16009KT 32/16 A2992 RMK A01 T03190162  RH  039%=      5-min Rain = 0
KAHS 180218Z 16009KT 32/16 A2992 RMK A01 T03180162  RH  039%=      5-min Rain = 0
KAHS 180219Z 16010KT 32/16 A2992 RMK A01 T03170162  RH  039%=      5-min Rain = 0
KAHS 180220Z 16010KT 32/16 A2992 RMK A01 T03180162  RH  039%=      5-min Rain = 0
KAHS 180221Z 17011KT 32/16 A2992 RMK A01 T03180163  RH  039%=      5-min Rain = 0
KAHS 180222Z 16009KT 32/16 A2992 RMK A01 T03180163  RH  039%=      5-min Rain = 0
KAHS 180223Z 16010KT 32/16 A2992 RMK A01 T03170163  RH  040%=      5-min Rain = 0
KAHS 180224Z 17008KT 32/16 A2992 RMK A01 T03170163  RH  040%=      5-min Rain = 0
KAHS 180225Z 16010KT 32/16 A2992 RMK A01 T03170164  RH  040%=      5-min Rain = 0
KAHS 180226Z 17010KT 32/16 A2992 RMK A01 T03170163  RH  040%=      5-min Rain = 0
KAHS 180227Z 16008KT 32/16 A2992 RMK A01 T03160163  RH  040%=      5-min Rain = 0
KAHS 180228Z 16010KT 32/16 A2992 RMK A01 T03160163  RH  040%=      5-min Rain = 0
KAHS 180229Z 16012KT 32/16 A2992 RMK A01 T03160162  RH  040%=      5-min Rain = 0
KAHS 180230Z 17010KT 32/16 A2992 RMK A01 T03170162  RH  040%=      5-min Rain = 0
KAHS 180231Z 16010KT 32/16 A2993 RMK A01 T03170162  RH  039%=      5-min Rain = 0
KAHS 180232Z 16009KT 32/16 A2993 RMK A01 T03160162  RH  040%=      5-min Rain = 0
KAHS 180233Z 16011KT 32/16 A2993 RMK A01 T03160162  RH  040%=      5-min Rain = 0
KAHS 180234Z 16010KT 32/16 A2993 RMK A01 T03160162  RH  040%=      5-min Rain = 0
KAHS 180235Z 16011KT 32/16 A2993 RMK A01 T03160161  RH  039%=      5-min Rain = 0
KAHS 180236Z 16011KT 32/16 A2993 RMK A01 T03160160  RH  039%=      5-min Rain = 0
KAHS 180237Z 16009KT 32/16 A2993 RMK A01 T03160161  RH  039%=      5-min Rain = 0
KAHS 180238Z 16010KT 32/16 A2993 RMK A01 T03150160  RH  039%=      5-min Rain = 0
KAHS 180239Z 16011KT 32/16 A2993 RMK A01 T03150161  RH  039%=      5-min Rain = 0
KAHS 180240Z 16011KT 32/16 A2993 RMK A01 T03150160  RH  039%=      5-min Rain = 0
KAHS 180241Z 16009KT 32/16 A2993 RMK A01 T03150160  RH  039%=      5-min Rain = 0
KAHS 180242Z 16012KT 32/16 A2993 RMK A01 T03150159  RH  039%=      5-min Rain = 0
KAHS 180243Z 16010KT 32/16 A2993 RMK A01 T03150158  RH  039%=      5-min Rain = 0
KAHS 180244Z 16010KT 32/16 A2993 RMK A01 T03150159  RH  039%=      5-min Rain = 0
KAHS 180245Z 16010KT 31/16 A2993 RMK A01 T03140159  RH  039%=      5-min Rain = 0
KAHS 180246Z 16010KT 32/16 A2993 RMK A01 T03150159  RH  039%=      5-min Rain = 0
KAHS 180247Z 16009KT 32/16 A2993 RMK A01 T03150159  RH  039%=      5-min Rain = 0
KAHS 180248Z 16009KT 32/16 A2993 RMK A01 T03150159  RH  039%=      5-min Rain = 0
KAHS 180249Z 17008KT 31/16 A2993 RMK A01 T03140160  RH  039%=      5-min Rain = 0
KAHS 180250Z 16007KT 31/16 A2993 RMK A01 T03140160  RH  040%=      5-min Rain = 0
KAHS 180251Z 16010KT 31/16 A2993 RMK A01 T03130161  RH  040%=      5-min Rain = 0
KAHS 180252Z 16012KT 31/16 A2993 RMK A01 T03130162  RH  040%=      5-min Rain = 0
KAHS 180253Z 16011KT 31/16 A2994 RMK A01 T03130163  RH  040%=      5-min Rain = 0
KAHS 180254Z 16011KT 31/16 A2994 RMK A01 T03130163  RH  040%=      5-min Rain = 0
KAHS 180255Z 17009KT 31/16 A2994 RMK A01 T03130164  RH  041%=      5-min Rain = 0
KAHS 180256Z 16011G16KT 31/17 A2994 RMK A01 T03130165  RH  041%=      5-min Rain = 0
KAHS 180257Z 15010G17KT 31/17 A2994 RMK A01 T03130166  RH  041%=      5-min Rain = 0
KAHS 180258Z 16011G16KT 31/17 A2994 RMK A01 T03130167  RH  042%=      5-min Rain = 0
KAHS 180259Z 16011KT 31/17 A2994 RMK A01 T03130168  RH  042%=      5-min Rain = 0
KAHS 180300Z 16011KT 31/17 A2994 RMK A01 T03120169  RH  042%=      5-min Rain = 0
KAHS 180301Z 17013KT 31/17 A2994 RMK A01 T03120170  RH  042%=      5-min Rain = 0
KAHS 180302Z 16012KT 31/17 A2994 RMK A01 T03130171  RH  043%=      5-min Rain = 0
KAHS 180303Z 16011G16KT 31/17 A2994 RMK A01 T03120171  RH  043%=      5-min Rain = 0
KAHS 180304Z 16011G16KT 31/17 A2994 RMK A01 T03120172  RH  043%=      5-min Rain = 0
KAHS 180305Z 17010KT 31/17 A2994 RMK A01 T03120172  RH  043%=      5-min Rain = 0
KAHS 180306Z 16009KT 31/17 A2994 RMK A01 T03110173  RH  043%=      5-min Rain = 0
KAHS 180307Z 17010KT 31/17 A2994 RMK A01 T03110173  RH  044%=      5-min Rain = 0
KAHS 180308Z 16009KT 31/17 A2994 RMK A01 T03110174  RH  044%=      5-min Rain = 0
KAHS 180309Z 17010KT 31/17 A2994 RMK A01 T03100174  RH  044%=      5-min Rain = 0
KAHS 180310Z 17011KT 31/17 A2994 RMK A01 T03100174  RH  044%=      5-min Rain = 0
KAHS 180311Z 17009KT 31/17 A2994 RMK A01 T03100174  RH  044%=      5-min Rain = 0
KAHS 180312Z 16009KT 31/17 A2994 RMK A01 T03100174  RH  044%=      5-min Rain = 0
KAHS 180313Z 16010KT 31/18 A2994 RMK A01 T03100175  RH  044%=      5-min Rain = 0
KAHS 180314Z 16007KT 31/18 A2994 RMK A01 T03090175  RH  045%=      5-min Rain = 0
KAHS 180315Z 16009KT 31/18 A2994 RMK A01 T03090175  RH  045%=      5-min Rain = 0
KAHS 180316Z 16010KT 31/18 A2994 RMK A01 T03090175  RH  045%=      5-min Rain = 0
KAHS 180317Z 16013KT 31/18 A2994 RMK A01 T03090175  RH  045%=      5-min Rain = 0
KAHS 180318Z 16012KT 31/18 A2994 RMK A01 T03090176  RH  045%=      5-min Rain = 0
KAHS 180319Z 16011KT 31/18 A2994 RMK A01 T03090175  RH  045%=      5-min Rain = 0
KAHS 180320Z 16010KT 31/18 A2994 RMK A01 T03090175  RH  045%=      5-min Rain = 0
KAHS 180321Z 16009KT 31/18 A2994 RMK A01 T03090176  RH  045%=      5-min Rain = 0
KAHS 180322Z 16011KT 31/18 A2995 RMK A01 T03080175  RH  045%=      5-min Rain = 0
KAHS 180323Z 16011G16KT 31/18 A2995 RMK A01 T03080175  RH  045%=      5-min Rain = 0
KAHS 180324Z 17010KT 31/18 A2995 RMK A01 T03090176  RH  045%=      5-min Rain = 0
KAHS 180325Z 16010KT 31/18 A2995 RMK A01 T03090176  RH  045%=      5-min Rain = 0
KAHS 180326Z 16009KT 31/18 A2995 RMK A01 T03080176  RH  045%=      5-min Rain = 0
KAHS 180327Z 17010KT 31/18 A2995 RMK A01 T03080176  RH  045%=      5-min Rain = 0
KAHS 180328Z 17010KT 31/18 A2995 RMK A01 T03080176  RH  045%=      5-min Rain = 0
KAHS 180329Z 17010KT 31/18 A2995 RMK A01 T03080176  RH  045%=      5-min Rain = 0
KAHS 180330Z 17009KT 31/18 A2995 RMK A01 T03070176  RH  046%=      5-min Rain = 0
KAHS 180331Z 17010KT 31/18 A2995 RMK A01 T03070177  RH  046%=      5-min Rain = 0
KAHS 180332Z 17012KT 31/18 A2994 RMK A01 T03070175  RH  045%=      5-min Rain = 0
KAHS 180333Z 17012KT 31/18 A2994 RMK A01 T03070176  RH  045%=      5-min Rain = 0
KAHS 180334Z 16010KT 31/18 A2994 RMK A01 T03070175  RH  045%=      5-min Rain = 0
KAHS 180335Z 16010KT 31/18 A2995 RMK A01 T03070175  RH  045%=      5-min Rain = 0
KAHS 180336Z 17011KT 31/18 A2994 RMK A01 T03070175  RH  045%=      5-min Rain = 0
KAHS 180337Z 17010KT 31/18 A2994 RMK A01 T03070175  RH  045%=      5-min Rain = 0
KAHS 180338Z 16010KT 31/18 A2995 RMK A01 T03070176  RH  045%=      5-min Rain = 0
KAHS 180339Z 16009KT 31/18 A2995 RMK A01 T03070176  RH  045%=      5-min Rain = 0
KAHS 180340Z 17009KT 31/18 A2995 RMK A01 T03060175  RH  046%=      5-min Rain = 0
KAHS 180341Z 17009KT 31/18 A2995 RMK A01 T03060175  RH  046%=      5-min Rain = 0
KAHS 180342Z 17009KT 31/18 A2995 RMK A01 T03050175  RH  046%=      5-min Rain = 0
KAHS 180343Z 16009KT 31/18 A2995 RMK A01 T03050175  RH  046%=      5-min Rain = 0
KAHS 180344Z 17009KT 30/18 A2995 RMK A01 T03040175  RH  046%=      5-min Rain = 0
KAHS 180345Z 17009KT 30/18 A2995 RMK A01 T03040175  RH  046%=      5-min Rain = 0
KAHS 180346Z 17011KT 30/18 A2995 RMK A01 T03040175  RH  046%=      5-min Rain = 0
KAHS 180347Z 17011KT 30/17 A2995 RMK A01 T03040174  RH  046%=      5-min Rain = 0
KAHS 180348Z 18009KT 31/18 A2995 RMK A01 T03050175  RH  046%=      5-min Rain = 0
KAHS 180349Z 17008KT 31/17 A2995 RMK A01 T03050174  RH  046%=      5-min Rain = 0
KAHS 180350Z 18009KT 30/17 A2995 RMK A01 T03040174  RH  046%=      5-min Rain = 0
KAHS 180351Z 17009KT 30/17 A2995 RMK A01 T03040174  RH  045%=      5-min Rain = 0
KAHS 180352Z 17010KT 30/17 A2995 RMK A01 T03040173  RH  045%=      5-min Rain = 0
KAHS 180353Z 17011KT 30/17 A2995 RMK A01 T03040173  RH  045%=      5-min Rain = 0
KAHS 180354Z 17009G14KT 31/17 A2995 RMK A01 T03050173  RH  045%=      5-min Rain = 0
KAHS 180355Z 17009KT 30/17 A2995 RMK A01 T03040173  RH  045%=      5-min Rain = 0
KAHS 180356Z 17010KT 31/17 A2995 RMK A01 T03050173  RH  045%=      5-min Rain = 0
KAHS 180357Z 18011G16KT 31/17 A2995 RMK A01 T03050172  RH  045%=      5-min Rain = 0
KAHS 180358Z 17010KT 31/17 A2995 RMK A01 T03050172  RH  045%=      5-min Rain = 0
KAHS 180359Z 17010KT 31/17 A2995 RMK A01 T03050172  RH  045%=      5-min Rain = 0
KAHS 180400Z 18009KT 31/17 A2995 RMK A01 T03050172  RH  045%=      5-min Rain = 0
KAHS 180401Z 18009KT 31/17 A2995 RMK A01 T03050172  RH  045%=      5-min Rain = 0
KAHS 180402Z 18011KT 30/17 A2995 RMK A01 T03040172  RH  045%=      5-min Rain = 0
KAHS 180403Z 17010KT 30/17 A2995 RMK A01 T03040172  RH  045%=      5-min Rain = 0
KAHS 180404Z 17010KT 31/17 A2995 RMK A01 T03050172  RH  045%=      5-min Rain = 0
KAHS 180405Z 18011KT 31/17 A2995 RMK A01 T03050172  RH  045%=      5-min Rain = 0
KAHS 180406Z 18011KT 31/17 A2995 RMK A01 T03050172  RH  045%=      5-min Rain = 0
KAHS 180407Z 18012KT 31/17 A2995 RMK A01 T03050172  RH  045%=      5-min Rain = 0
KAHS 180408Z 18010KT 31/17 A2995 RMK A01 T03050171  RH  045%=      5-min Rain = 0
KAHS 180409Z 17012KT 31/17 A2995 RMK A01 T03050172  RH  045%=      5-min Rain = 0
KAHS 180410Z 18009KT 30/17 A2995 RMK A01 T03040171  RH  045%=      5-min Rain = 0
KAHS 180411Z 18013KT 30/17 A2995 RMK A01 T03040171  RH  045%=      5-min Rain = 0
KAHS 180412Z 17013KT 31/17 A2995 RMK A01 T03050171  RH  045%=      5-min Rain = 0
KAHS 180413Z 18011KT 31/17 A2995 RMK A01 T03050171  RH  045%=      5-min Rain = 0
KAHS 180414Z 18010KT 31/17 A2995 RMK A01 T03050171  RH  045%=      5-min Rain = 0
KAHS 180415Z 19009KT 30/17 A2995 RMK A01 T03040171  RH  045%=      5-min Rain = 0
KAHS 180416Z 18011KT 30/17 A2995 RMK A01 T03040172  RH  045%=      5-min Rain = 0
KAHS 180417Z 18013KT 30/17 A2995 RMK A01 T03040171  RH  045%=      5-min Rain = 0
KAHS 180418Z 18011KT 30/17 A2995 RMK A01 T03040171  RH  045%=      5-min Rain = 0
KAHS 180419Z 18008KT 30/17 A2995 RMK A01 T03040172  RH  045%=      5-min Rain = 0
KAHS 180420Z 18012KT 30/17 A2995 RMK A01 T03030171  RH  045%=      5-min Rain = 0
KAHS 180421Z 18012KT 30/17 A2995 RMK A01 T03040171  RH  045%=      5-min Rain = 0
KAHS 180422Z 18009G15KT 30/17 A2995 RMK A01 T03030171  RH  045%=      5-min Rain = 0
KAHS 180423Z 18012KT 30/17 A2995 RMK A01 T03030171  RH  045%=      5-min Rain = 0
KAHS 180424Z 19011KT 30/17 A2995 RMK A01 T03040171  RH  045%=      5-min Rain = 0
KAHS 180425Z 18010KT 30/17 A2995 RMK A01 T03030171  RH  045%=      5-min Rain = 0
KAHS 180426Z 18010KT 30/17 A2995 RMK A01 T03030171  RH  045%=      5-min Rain = 0
KAHS 180427Z 17011KT 30/17 A2995 RMK A01 T03030171  RH  045%=      5-min Rain = 0
KAHS 180428Z 18013KT 30/17 A2995 RMK A01 T03030171  RH  045%=      5-min Rain = 0
KAHS 180429Z 18011KT 30/17 A2995 RMK A01 T03030171  RH  045%=      5-min Rain = 0
KAHS 180430Z 18011G16KT 30/17 A2995 RMK A01 T03030171  RH  045%=      5-min Rain = 0
KAHS 180431Z 18010KT 30/17 A2995 RMK A01 T03030171  RH  045%=      5-min Rain = 0
KAHS 180432Z 17012G17KT 30/17 A2995 RMK A01 T03030171  RH  045%=      5-min Rain = 0
KAHS 180433Z 18013KT 30/17 A2995 RMK A01 T03030171  RH  045%=      5-min Rain = 0
KAHS 180434Z 18010KT 30/17 A2995 RMK A01 T03030171  RH  045%=      5-min Rain = 0
KAHS 180435Z 18013KT 30/17 A2995 RMK A01 T03020171  RH  045%=      5-min Rain = 0
KAHS 180436Z 17011KT 30/17 A2994 RMK A01 T03020171  RH  045%=      5-min Rain = 0
KAHS 180437Z 18010KT 30/17 A2995 RMK A01 T03020171  RH  045%=      5-min Rain = 0
KAHS 180438Z 18012KT 30/17 A2994 RMK A01 T03010171  RH  045%=      5-min Rain = 0
KAHS 180439Z 18012KT 30/17 A2995 RMK A01 T03020171  RH  045%=      5-min Rain = 0
KAHS 180440Z 18013KT 30/17 A2995 RMK A01 T03020170  RH  045%=      5-min Rain = 0
KAHS 180441Z 19011KT 30/17 A2995 RMK A01 T03010171  RH  045%=      5-min Rain = 0
KAHS 180442Z 18011KT 30/17 A2995 RMK A01 T03020171  RH  046%=      5-min Rain = 0
KAHS 180443Z 18013KT 30/17 A2995 RMK A01 T03010171  RH  046%=      5-min Rain = 0
KAHS 180444Z 18011KT 30/17 A2995 RMK A01 T03020171  RH  045%=      5-min Rain = 0
KAHS 180445Z 18012KT 30/17 A2995 RMK A01 T03010170  RH  046%=      5-min Rain = 0
KAHS 180446Z 18010KT 30/17 A2995 RMK A01 T03010171  RH  046%=      5-min Rain = 0
KAHS 180447Z 18010KT 30/17 A2995 RMK A01 T03000171  RH  046%=      5-min Rain = 0
KAHS 180448Z 18010KT 30/17 A2995 RMK A01 T03000171  RH  046%=      5-min Rain = 0
KAHS 180449Z 18010KT 30/17 A2995 RMK A01 T03000171  RH  046%=      5-min Rain = 0
KAHS 180450Z 18007KT 30/17 A2995 RMK A01 T02990171  RH  046%=      5-min Rain = 0
KAHS 180451Z 19010KT 30/17 A2995 RMK A01 T02990171  RH  046%=      5-min Rain = 0
KAHS 180452Z 18011G18KT 30/17 A2995 RMK A01 T02990170  RH  046%=      5-min Rain = 0
KAHS 180453Z 18009KT 30/17 A2995 RMK A01 T02990170  RH  046%=      5-min Rain = 0
KAHS 180454Z 18009KT 30/17 A2995 RMK A01 T02990170  RH  046%=      5-min Rain = 0
KAHS 180455Z 18009KT 30/17 A2995 RMK A01 T02990171  RH  046%=      5-min Rain = 0
KAHS 180456Z 18010KT 30/17 A2995 RMK A01 T02990171  RH  046%=      5-min Rain = 0
KAHS 180457Z 18011KT 30/17 A2995 RMK A01 T02990171  RH  046%=      5-min Rain = 0
KAHS 180458Z 18011G16KT 30/17 A2994 RMK A01 T02990171  RH  046%=      5-min Rain = 0
KAHS 180459Z 18010KT 30/17 A2994 RMK A01 T02990171  RH  046%=      5-min Rain = 0

Page generated in 0.1453 seconds.